Darstellungsparameter: Aktuell verwendete Einstellungen:
Skalierung der Graphiken ... ?
xyx+y,   Skalierungsfaktor:      Skalierung: Modus: x, Faktor: 1
Darstellungszeitraum ... ?
Vom - - bis: - -   Zeitraum: 27.07.2020 - 02.08.2020
Min/Max/Avg-Anzeige ... ?
Zeige MMA aktuell
Zeige MMA Monat
Zeige MMA alles
Zeige --A aktuell
Zeige --A Monat
Zeige --A alles
Keine MMA-Anzeige
MMA:
Keine MMA-Graphiken
MMA-Basis: 27.07.2020 - 02.08.2020
Quicknavigation für Darstellung... ?
Tage:      1T, 2T, 3T, 5T -1T -2T -3T -5T +1T +2T +3T +5T
Wochen: 1W, 2W, 3W -1W -2W -3W +1W +2W +3W
Monate: 1M, 3M, 6M -1M -3M -6M +1M +3M +6M
Jahre:    1J, 3J, 5J, 10J -1J -3J -5J -10J +1J +3J +5J +10J
Nutze für die Darstellung ... ?
Originaldaten oder Mittelwerte auf ...
Stundenbasis Tagesbasis Wochenbasis
Monatsbasis Jahresbasis      Datenbasis: Original-Daten
Darstellen als:
Statistik (Auto) Statistik J:M      Darstellung:
Zur Graphik,    zurück zur Übersicht aller Sensoren.
 
Tabellarische Datenbersicht: ?
 
Sensor: Nr:Datum:Temp:Feuchte:Taupunkt:
Aussen-T/F 1 27-07-2020 00:00:00 16.8 C 79 % 13.14 C
2 27-07-2020 00:05:00 16.7 C 80 % 13.23 C
3 27-07-2020 00:10:00 16.7 C 80 % 13.23 C
4 27-07-2020 00:15:00 16.7 C 80 % 13.23 C
5 27-07-2020 00:20:00 16.7 C 80 % 13.23 C
6 27-07-2020 00:25:00 16.7 C 80 % 13.23 C
7 27-07-2020 00:30:00 16.7 C 80 % 13.23 C
8 27-07-2020 00:35:00 16.7 C 80 % 13.23 C
9 27-07-2020 00:40:00 16.6 C 80 % 13.14 C
10 27-07-2020 00:45:00 16.6 C 80 % 13.14 C
11 27-07-2020 00:50:00 16.5 C 80 % 13.04 C
12 27-07-2020 00:55:00 16.3 C 80 % 12.85 C
13 27-07-2020 01:00:00 16.2 C 80 % 12.75 C
14 27-07-2020 01:05:00 16 C 80 % 12.55 C
15 27-07-2020 01:10:00 15.9 C 81 % 12.65 C
16 27-07-2020 01:15:00 15.8 C 81 % 12.55 C
17 27-07-2020 01:20:00 15.6 C 81 % 12.35 C
18 27-07-2020 01:25:00 15.5 C 81 % 12.26 C
19 27-07-2020 01:30:00 15.3 C 82 % 12.25 C
20 27-07-2020 01:35:00 15.2 C 82 % 12.15 C
21 27-07-2020 01:40:00 15.1 C 83 % 12.24 C
22 27-07-2020 01:45:00 14.9 C 83 % 12.04 C
23 27-07-2020 01:50:00 14.8 C 83 % 11.94 C
24 27-07-2020 01:55:00 14.7 C 84 % 12.03 C
25 27-07-2020 02:00:00 14.7 C 84 % 12.03 C
Sensor: Nr:Datum:Temp:Feuchte:Taupunkt:
Aussen-T/F 26 27-07-2020 02:05:00 14.6 C 84 % 11.93 C
27 27-07-2020 02:10:00 14.6 C 85 % 12.11 C
28 27-07-2020 02:15:00 14.5 C 85 % 12.01 C
29 27-07-2020 02:20:00 14.4 C 85 % 11.91 C
30 27-07-2020 02:25:00 14.4 C 85 % 11.91 C
31 27-07-2020 02:30:00 14.4 C 85 % 11.91 C
32 27-07-2020 02:35:00 14.3 C 85 % 11.81 C
33 27-07-2020 02:40:00 14.2 C 85 % 11.72 C
34 27-07-2020 02:45:00 14.1 C 86 % 11.8 C
35 27-07-2020 02:50:00 14.1 C 86 % 11.8 C
36 27-07-2020 02:55:00 14 C 86 % 11.7 C
37 27-07-2020 03:00:00 13.9 C 87 % 11.77 C
38 27-07-2020 03:05:00 13.8 C 87 % 11.68 C
39 27-07-2020 03:10:00 13.8 C 87 % 11.68 C
40 27-07-2020 03:15:00 13.7 C 87 % 11.58 C
41 27-07-2020 03:20:00 13.6 C 87 % 11.48 C
42 27-07-2020 03:25:00 13.5 C 87 % 11.38 C
43 27-07-2020 03:30:00 13.4 C 88 % 11.45 C
44 27-07-2020 03:35:00 13.4 C 88 % 11.45 C
45 27-07-2020 03:40:00 13.3 C 88 % 11.36 C
46 27-07-2020 03:45:00 13.3 C 88 % 11.36 C
47 27-07-2020 03:50:00 13.2 C 88 % 11.26 C
48 27-07-2020 03:55:00 13.1 C 88 % 11.16 C
49 27-07-2020 04:00:00 13.1 C 88 % 11.16 C
50 27-07-2020 04:05:00 13.1 C 89 % 11.33 C
Sensor: Nr:Datum:Temp:Feuchte:Taupunkt:
Aussen-T/F 51 27-07-2020 04:10:00 13 C 89 % 11.23 C
52 27-07-2020 04:15:00 12.9 C 89 % 11.13 C
53 27-07-2020 04:20:00 12.9 C 89 % 11.13 C
54 27-07-2020 04:25:00 12.8 C 89 % 11.03 C
55 27-07-2020 04:30:00 12.8 C 89 % 11.03 C
56 27-07-2020 04:35:00 12.8 C 90 % 11.2 C
57 27-07-2020 04:40:00 12.7 C 90 % 11.1 C
58 27-07-2020 04:45:00 12.7 C 90 % 11.1 C
59 27-07-2020 04:50:00 12.7 C 90 % 11.1 C
60 27-07-2020 04:55:00 12.7 C 91 % 11.27 C
61 27-07-2020 05:00:00 12.7 C 91 % 11.27 C
62 27-07-2020 05:05:00 12.7 C 92 % 11.43 C
63 27-07-2020 05:10:00 12.8 C 92 % 11.53 C
64 27-07-2020 05:15:00 12.8 C 92 % 11.53 C
65 27-07-2020 05:20:00 12.8 C 92 % 11.53 C
66 27-07-2020 05:25:00 12.8 C 92 % 11.53 C
67 27-07-2020 05:30:00 12.8 C 92 % 11.53 C
68 27-07-2020 05:35:00 12.8 C 92 % 11.53 C
69 27-07-2020 05:40:00 12.8 C 92 % 11.53 C
70 27-07-2020 05:45:00 12.8 C 92 % 11.53 C
71 27-07-2020 05:50:00 12.8 C 92 % 11.53 C
72 27-07-2020 05:55:00 12.8 C 92 % 11.53 C
73 27-07-2020 06:00:00 12.8 C 92 % 11.53 C
74 27-07-2020 06:05:00 12.7 C 92 % 11.43 C
75 27-07-2020 06:10:00 12.7 C 92 % 11.43 C
Sensor: Nr:Datum:Temp:Feuchte:Taupunkt:
Aussen-T/F 76 27-07-2020 06:15:00 12.8 C 92 % 11.53 C
77 27-07-2020 06:20:00 12.9 C 93 % 11.8 C
78 27-07-2020 06:25:00 12.9 C 93 % 11.8 C
79 27-07-2020 06:30:00 13 C 93 % 11.9 C
80 27-07-2020 06:35:00 13 C 92 % 11.73 C
81 27-07-2020 06:40:00 12.9 C 92 % 11.63 C
82 27-07-2020 06:45:00 12.9 C 92 % 11.63 C
83 27-07-2020 06:50:00 12.9 C 92 % 11.63 C
84 27-07-2020 06:55:00 12.9 C 92 % 11.63 C
85 27-07-2020 07:00:00 13 C 92 % 11.73 C
86 27-07-2020 07:05:00 13.1 C 93 % 11.99 C
87 27-07-2020 07:10:00 13.2 C 93 % 12.09 C
88 27-07-2020 07:15:00 13.3 C 93 % 12.19 C
89 27-07-2020 07:20:00 13.4 C 93 % 12.29 C
90 27-07-2020 07:25:00 13.6 C 93 % 12.49 C
91 27-07-2020 07:30:00 13.8 C 93 % 12.69 C
92 27-07-2020 07:35:00 13.8 C 92 % 12.52 C
93 27-07-2020 07:40:00 13.9 C 92 % 12.62 C
94 27-07-2020 07:45:00 14.1 C 92 % 12.82 C
95 27-07-2020 07:50:00 14.2 C 92 % 12.92 C
96 27-07-2020 07:55:00 14.3 C 92 % 13.02 C
97 27-07-2020 08:00:00 14.4 C 91 % 12.95 C
98 27-07-2020 08:05:00 14.6 C 91 % 13.15 C
99 27-07-2020 08:10:00 14.8 C 91 % 13.35 C
100 27-07-2020 08:15:00 14.9 C 90 % 13.28 C
Sensor: Nr:Datum:Temp:Feuchte:Taupunkt:
Aussen-T/F 101 27-07-2020 08:20:00 15.1 C 90 % 13.47 C
102 27-07-2020 08:25:00 15.3 C 89 % 13.5 C
103 27-07-2020 08:30:00 15.4 C 89 % 13.6 C
104 27-07-2020 08:35:00 15.7 C 88 % 13.72 C
105 27-07-2020 08:40:00 15.8 C 87 % 13.64 C
106 27-07-2020 08:45:00 16.1 C 86 % 13.76 C
107 27-07-2020 08:50:00 16.2 C 86 % 13.86 C
108 27-07-2020 08:55:00 16.4 C 85 % 13.87 C
109 27-07-2020 09:00:00 16.6 C 85 % 14.07 C
110 27-07-2020 09:05:00 16.7 C 84 % 13.98 C
111 27-07-2020 09:10:00 16.7 C 84 % 13.98 C
112 27-07-2020 09:15:00 16.8 C 83 % 13.9 C
113 27-07-2020 09:20:00 16.9 C 83 % 14 C
114 27-07-2020 09:25:00 17.1 C 83 % 14.19 C
115 27-07-2020 09:30:00 17.2 C 82 % 14.1 C
116 27-07-2020 09:35:00 17.3 C 81 % 14.01 C
117 27-07-2020 09:40:00 17.4 C 81 % 14.11 C
118 27-07-2020 09:45:00 17.6 C 82 % 14.49 C
119 27-07-2020 09:50:00 17.9 C 81 % 14.59 C
120 27-07-2020 09:55:00 18.2 C 81 % 14.89 C
121 27-07-2020 10:00:00 18.5 C 79 % 14.79 C
122 27-07-2020 10:05:00 18.8 C 78 % 14.88 C
123 27-07-2020 10:10:00 18.9 C 79 % 15.18 C
124 27-07-2020 10:15:00 19.1 C 77 % 14.97 C
125 27-07-2020 10:20:00 19.4 C 77 % 15.27 C
Sensor: Nr:Datum:Temp:Feuchte:Taupunkt:
Aussen-T/F 126 27-07-2020 10:25:00 19.7 C 77 % 15.56 C
127 27-07-2020 10:30:00 20.1 C 77 % 15.94 C
128 27-07-2020 10:35:00 20.4 C 75 % 15.82 C
129 27-07-2020 10:40:00 20.6 C 75 % 16.01 C
130 27-07-2020 10:45:00 20.8 C 73 % 15.78 C
131 27-07-2020 10:50:00 21.1 C 73 % 16.07 C
132 27-07-2020 10:55:00 21.4 C 73 % 16.36 C
133 27-07-2020 11:00:00 21.6 C 71 % 16.12 C
134 27-07-2020 11:05:00 21.9 C 70 % 16.18 C
135 27-07-2020 11:10:00 22.1 C 68 % 15.92 C
136 27-07-2020 11:15:00 22.3 C 67 % 15.88 C
137 27-07-2020 11:20:00 22.6 C 66 % 15.93 C
138 27-07-2020 11:25:00 22.7 C 66 % 16.02 C
139 27-07-2020 11:30:00 22.9 C 64 % 15.73 C
140 27-07-2020 11:35:00 23.1 C 63 % 15.67 C
141 27-07-2020 11:40:00 23.3 C 62 % 15.61 C
142 27-07-2020 11:45:00 23.5 C 61 % 15.55 C
143 27-07-2020 11:50:00 23.7 C 60 % 15.48 C
144 27-07-2020 11:55:00 23.8 C 59 % 15.31 C
145 27-07-2020 12:00:00 24.1 C 59 % 15.59 C
146 27-07-2020 12:05:00 24.2 C 57 % 15.14 C
147 27-07-2020 12:10:00 24.2 C 56 % 14.87 C
148 27-07-2020 12:15:00 24.3 C 57 % 15.24 C
149 27-07-2020 12:20:00 24.4 C 56 % 15.06 C
150 27-07-2020 12:25:00 24.6 C 53 % 14.39 C
Sensor: Nr:Datum:Temp:Feuchte:Taupunkt:
Aussen-T/F 151 27-07-2020 12:30:00 24.7 C 55 % 15.05 C
152 27-07-2020 12:35:00 24.8 C 55 % 15.15 C
153 27-07-2020 12:40:00 25 C 54 % 15.05 C
154 27-07-2020 12:45:00 25.3 C 51 % 14.44 C
155 27-07-2020 12:50:00 25.8 C 48 % 13.96 C
156 27-07-2020 12:55:00 26.1 C 47 % 13.91 C
157 27-07-2020 13:00:00 26.2 C 46 % 13.67 C
158 27-07-2020 13:05:00 26.3 C 45 % 13.42 C
159 27-07-2020 13:10:00 26.3 C 45 % 13.42 C
160 27-07-2020 13:15:00 26.4 C 44 % 13.17 C
161 27-07-2020 13:20:00 26.5 C 43 % 12.91 C
162 27-07-2020 13:25:00 26.5 C 42 % 12.55 C
163 27-07-2020 13:30:00 26.4 C 44 % 13.17 C
164 27-07-2020 13:35:00 26.4 C 43 % 12.82 C
165 27-07-2020 13:40:00 26.6 C 42 % 12.64 C
166 27-07-2020 13:45:00 26.6 C 44 % 13.35 C
167 27-07-2020 13:50:00 26.8 C 43 % 13.18 C
168 27-07-2020 13:55:00 26.9 C 43 % 13.27 C
169 27-07-2020 14:00:00 27.1 C 42 % 13.09 C
170 27-07-2020 14:05:00 27.2 C 43 % 13.54 C
171 27-07-2020 14:10:00 27.2 C 43 % 13.54 C
172 27-07-2020 14:15:00 27.3 C 44 % 13.98 C
173 27-07-2020 14:20:00 27.3 C 45 % 14.33 C
174 27-07-2020 14:25:00 27.2 C 46 % 14.58 C
175 27-07-2020 14:30:00 27.3 C 47 % 15 C
Sensor: Nr:Datum:Temp:Feuchte:Taupunkt:
Aussen-T/F 176 27-07-2020 14:35:00 27.5 C 46 % 14.85 C
177 27-07-2020 14:40:00 27.7 C 47 % 15.36 C
178 27-07-2020 14:45:00 27.7 C 46 % 15.03 C
179 27-07-2020 14:50:00 27.7 C 47 % 15.36 C
180 27-07-2020 14:55:00 28 C 44 % 14.61 C
181 27-07-2020 15:00:00 28.3 C 45 % 15.23 C
182 27-07-2020 15:05:00 28.6 C 44 % 15.15 C
183 27-07-2020 15:10:00 28.8 C 41 % 14.24 C
184 27-07-2020 15:15:00 29.1 C 38 % 13.34 C
185 27-07-2020 15:20:00 29.2 C 39 % 13.82 C
186 27-07-2020 15:25:00 29.4 C 39 % 14 C
187 27-07-2020 15:30:00 29.4 C 39 % 14 C
188 27-07-2020 15:35:00 29.4 C 39 % 14 C
189 27-07-2020 15:40:00 29.4 C 40 % 14.39 C
190 27-07-2020 15:45:00 29.3 C 38 % 13.51 C
191 27-07-2020 15:50:00 29.1 C 38 % 13.34 C
192 27-07-2020 15:55:00 28.8 C 40 % 13.86 C
193 27-07-2020 16:00:00 28.7 C 38 % 12.98 C
194 27-07-2020 16:05:00 28.8 C 38 % 13.07 C
195 27-07-2020 16:10:00 28.7 C 38 % 12.98 C
196 27-07-2020 16:15:00 28.5 C 38 % 12.8 C
197 27-07-2020 16:20:00 28.4 C 39 % 13.11 C
198 27-07-2020 16:25:00 28.6 C 38 % 12.89 C
199 27-07-2020 16:30:00 28.8 C 37 % 12.66 C
200 27-07-2020 16:35:00 28.9 C 38 % 13.16 C
Sensor: Nr:Datum:Temp:Feuchte:Taupunkt:
Aussen-T/F 201 27-07-2020 16:40:00 29 C 39 % 13.65 C
202 27-07-2020 16:45:00 29.1 C 36 % 12.51 C
203 27-07-2020 16:50:00 29.3 C 36 % 12.68 C
204 27-07-2020 16:55:00 30 C 34 % 12.43 C
205 27-07-2020 17:00:00 30.5 C 35 % 13.31 C
206 27-07-2020 17:05:00 31 C 32 % 12.37 C
207 27-07-2020 17:10:00 31.4 C 31 % 12.24 C
208 27-07-2020 17:15:00 31.6 C 30 % 11.91 C
209 27-07-2020 17:20:00 31.7 C 31 % 12.5 C
210 27-07-2020 17:25:00 31.8 C 30 % 12.08 C
211 27-07-2020 17:30:00 31.7 C 31 % 12.5 C
212 27-07-2020 17:35:00 31.8 C 32 % 13.07 C
213 27-07-2020 17:40:00 32.2 C 28 % 11.38 C
214 27-07-2020 17:45:00 32.2 C 28 % 11.38 C
215 27-07-2020 17:50:00 32.1 C 29 % 11.83 C
216 27-07-2020 17:55:00 31.8 C 29 % 11.57 C
217 27-07-2020 18:00:00 31.8 C 29 % 11.57 C
218 27-07-2020 18:05:00 31.5 C 28 % 10.79 C
219 27-07-2020 18:10:00 31.1 C 30 % 11.48 C
220 27-07-2020 18:15:00 31.3 C 30 % 11.65 C
221 27-07-2020 18:20:00 31.7 C 31 % 12.5 C
222 27-07-2020 18:25:00 31.8 C 30 % 12.08 C
223 27-07-2020 18:30:00 31.3 C 32 % 12.63 C
224 27-07-2020 18:35:00 31.2 C 33 % 13.02 C
225 27-07-2020 18:40:00 31.1 C 32 % 12.46 C
Sensor: Nr:Datum:Temp:Feuchte:Taupunkt:
Aussen-T/F 226 27-07-2020 18:45:00 31 C 32 % 12.37 C
227 27-07-2020 18:50:00 30.8 C 32 % 12.2 C
228 27-07-2020 18:55:00 30.7 C 34 % 13.04 C
229 27-07-2020 19:00:00 30.7 C 37 % 14.34 C
230 27-07-2020 19:05:00 30.7 C 33 % 12.58 C
231 27-07-2020 19:10:00 30.8 C 35 % 13.57 C
232 27-07-2020 19:15:00 30.9 C 38 % 14.93 C
233 27-07-2020 19:20:00 30.8 C 37 % 14.43 C
234 27-07-2020 19:25:00 30.7 C 36 % 13.92 C
235 27-07-2020 19:30:00 30.6 C 38 % 14.66 C
236 27-07-2020 19:35:00 30.5 C 36 % 13.74 C
237 27-07-2020 19:40:00 30.4 C 41 % 15.67 C
238 27-07-2020 19:45:00 30.3 C 40 % 15.19 C
239 27-07-2020 19:50:00 30.2 C 41 % 15.49 C
240 27-07-2020 19:55:00 29.9 C 42 % 15.6 C
241 27-07-2020 20:00:00 29.7 C 42 % 15.42 C
242 27-07-2020 20:05:00 29.4 C 42 % 15.15 C
243 27-07-2020 20:10:00 29.3 C 43 % 15.42 C
244 27-07-2020 20:15:00 29.1 C 43 % 15.24 C
245 27-07-2020 20:20:00 28.9 C 44 % 15.42 C
246 27-07-2020 20:25:00 28.7 C 45 % 15.59 C
247 27-07-2020 20:30:00 28.4 C 45 % 15.32 C
248 27-07-2020 20:35:00 28.2 C 46 % 15.48 C
249 27-07-2020 20:40:00 28.1 C 46 % 15.39 C
250 27-07-2020 20:45:00 27.8 C 46 % 15.12 C
Sensor: Nr:Datum:Temp:Feuchte:Taupunkt:
Aussen-T/F 251 27-07-2020 20:50:00 27.7 C 45 % 14.69 C
252 27-07-2020 20:55:00 27.6 C 45 % 14.6 C
253 27-07-2020 21:00:00 27.5 C 47 % 15.18 C
254 27-07-2020 21:05:00 27.3 C 46 % 14.67 C
255 27-07-2020 21:10:00 26.9 C 47 % 14.64 C
256 27-07-2020 21:15:00 26.6 C 48 % 14.69 C
257 27-07-2020 21:20:00 26.3 C 48 % 14.42 C
258 27-07-2020 21:25:00 26.1 C 48 % 14.23 C
259 27-07-2020 21:30:00 25.8 C 49 % 14.28 C
260 27-07-2020 21:35:00 25.6 C 48 % 13.78 C
261 27-07-2020 21:40:00 25.4 C 50 % 14.22 C
262 27-07-2020 21:45:00 25.3 C 50 % 14.13 C
263 27-07-2020 21:50:00 25.2 C 50 % 14.04 C
264 27-07-2020 21:55:00 25.1 C 51 % 14.25 C
265 27-07-2020 22:00:00 25 C 51 % 14.16 C
266 27-07-2020 22:05:00 24.9 C 51 % 14.07 C
267 27-07-2020 22:10:00 24.8 C 51 % 13.98 C
268 27-07-2020 22:15:00 24.7 C 51 % 13.89 C
269 27-07-2020 22:20:00 24.6 C 52 % 14.09 C
270 27-07-2020 22:25:00 24.6 C 52 % 14.09 C
271 27-07-2020 22:30:00 24.5 C 53 % 14.3 C
272 27-07-2020 22:35:00 24.4 C 52 % 13.91 C
273 27-07-2020 22:40:00 24.4 C 52 % 13.91 C
274 27-07-2020 22:45:00 24.3 C 53 % 14.11 C
275 27-07-2020 22:50:00 24.2 C 53 % 14.02 C
Sensor: Nr:Datum:Temp:Feuchte:Taupunkt:
Aussen-T/F 276 27-07-2020 22:55:00 24.1 C 55 % 14.5 C
277 27-07-2020 23:00:00 24.1 C 55 % 14.5 C
278 27-07-2020 23:05:00 23.9 C 55 % 14.31 C
279 27-07-2020 23:10:00 23.8 C 56 % 14.5 C
280 27-07-2020 23:15:00 23.7 C 58 % 14.95 C
281 27-07-2020 23:20:00 23.5 C 57 % 14.49 C
282 27-07-2020 23:25:00 23.3 C 58 % 14.58 C
283 27-07-2020 23:30:00 23.2 C 58 % 14.48 C
284 27-07-2020 23:35:00 22.9 C 58 % 14.2 C
285 27-07-2020 23:40:00 22.8 C 58 % 14.11 C
286 27-07-2020 23:45:00 22.6 C 59 % 14.18 C
287 27-07-2020 23:50:00 22.3 C 60 % 14.16 C
288 27-07-2020 23:55:00 22.2 C 59 % 13.81 C
289 28-07-2020 00:00:00 22.1 C 59 % 13.72 C
290 28-07-2020 00:05:00 21.9 C 60 % 13.79 C
291 28-07-2020 00:10:00 21.8 C 61 % 13.95 C
292 28-07-2020 00:15:00 21.7 C 60 % 13.6 C
293 28-07-2020 00:20:00 21.6 C 61 % 13.76 C
294 28-07-2020 00:25:00 21.5 C 62 % 13.92 C
295 28-07-2020 00:30:00 21.4 C 62 % 13.82 C
296 28-07-2020 00:35:00 21.3 C 62 % 13.73 C
297 28-07-2020 00:40:00 21.3 C 62 % 13.73 C
298 28-07-2020 00:45:00 21.3 C 62 % 13.73 C
299 28-07-2020 00:50:00 21.3 C 62 % 13.73 C
300 28-07-2020 00:55:00 21.3 C 62 % 13.73 C
Sensor: Nr:Datum:Temp:Feuchte:Taupunkt:
Aussen-T/F 301 28-07-2020 01:00:00 21.4 C 61 % 13.57 C
302 28-07-2020 01:05:00 21.6 C 63 % 14.26 C
303 28-07-2020 01:10:00 21.7 C 61 % 13.85 C
304 28-07-2020 01:15:00 21.8 C 61 % 13.95 C
305 28-07-2020 01:20:00 21.8 C 60 % 13.69 C
306 28-07-2020 01:25:00 21.9 C 61 % 14.04 C
307 28-07-2020 01:30:00 21.9 C 60 % 13.79 C
308 28-07-2020 01:35:00 22.1 C 61 % 14.23 C
309 28-07-2020 01:40:00 22.1 C 60 % 13.98 C
310 28-07-2020 01:45:00 22.2 C 61 % 14.32 C
311 28-07-2020 01:50:00 22.2 C 61 % 14.32 C
312 28-07-2020 01:55:00 22.2 C 60 % 14.07 C
313 28-07-2020 02:00:00 22.2 C 59 % 13.81 C
314 28-07-2020 02:05:00 22.2 C 59 % 13.81 C
315 28-07-2020 02:10:00 22.3 C 58 % 13.64 C
316 28-07-2020 02:15:00 22.4 C 59 % 14 C
317 28-07-2020 02:20:00 22.4 C 60 % 14.26 C
318 28-07-2020 02:25:00 22.3 C 59 % 13.9 C
319 28-07-2020 02:30:00 22.3 C 60 % 14.16 C
320 28-07-2020 02:35:00 22.3 C 61 % 14.42 C
321 28-07-2020 02:40:00 22.2 C 61 % 14.32 C
322 28-07-2020 02:45:00 22 C 61 % 14.14 C
323 28-07-2020 02:50:00 21.9 C 61 % 14.04 C
324 28-07-2020 02:55:00 21.8 C 61 % 13.95 C
325 28-07-2020 03:00:00 21.7 C 61 % 13.85 C
Sensor: Nr:Datum:Temp:Feuchte:Taupunkt:
Aussen-T/F 326 28-07-2020 03:05:00 21.7 C 61 % 13.85 C
327 28-07-2020 03:10:00 21.6 C 61 % 13.76 C
328 28-07-2020 03:15:00 21.6 C 62 % 14.01 C
329 28-07-2020 03:20:00 21.4 C 62 % 13.82 C
330 28-07-2020 03:25:00 21.3 C 62 % 13.73 C
331 28-07-2020 03:30:00 21.2 C 62 % 13.63 C
332 28-07-2020 03:35:00 21 C 63 % 13.69 C
333 28-07-2020 03:40:00 20.8 C 63 % 13.5 C
334 28-07-2020 03:45:00 20.7 C 64 % 13.65 C
335 28-07-2020 03:50:00 20.6 C 64 % 13.55 C
336 28-07-2020 03:55:00 20.4 C 65 % 13.6 C
337 28-07-2020 04:00:00 20.4 C 65 % 13.6 C
338 28-07-2020 04:05:00 20.4 C 67 % 14.07 C
339 28-07-2020 04:10:00 20.4 C 67 % 14.07 C
340 28-07-2020 04:15:00 20.3 C 66 % 13.74 C
341 28-07-2020 04:20:00 20.2 C 66 % 13.65 C
342 28-07-2020 04:25:00 20.2 C 67 % 13.88 C
343 28-07-2020 04:30:00 20.1 C 67 % 13.78 C
344 28-07-2020 04:35:00 20.1 C 64 % 13.08 C
345 28-07-2020 04:40:00 20.1 C 65 % 13.32 C
346 28-07-2020 04:45:00 20.1 C 66 % 13.55 C
347 28-07-2020 04:50:00 20.1 C 66 % 13.55 C
348 28-07-2020 04:55:00 19.9 C 63 % 12.65 C
349 28-07-2020 05:00:00 19.9 C 65 % 13.13 C
350 28-07-2020 05:05:00 19.9 C 65 % 13.13 C
Sensor: Nr:Datum:Temp:Feuchte:Taupunkt:
Aussen-T/F 351 28-07-2020 05:10:00 19.9 C 66 % 13.36 C
352 28-07-2020 05:15:00 20 C 64 % 12.99 C
353 28-07-2020 05:20:00 20 C 63 % 12.75 C
354 28-07-2020 05:25:00 20.1 C 63 % 12.84 C
355 28-07-2020 05:30:00 20.2 C 64 % 13.18 C
356 28-07-2020 05:35:00 20.2 C 64 % 13.18 C
357 28-07-2020 05:40:00 20.2 C 63 % 12.94 C
358 28-07-2020 05:45:00 20.2 C 64 % 13.18 C
359 28-07-2020 05:50:00 20.2 C 65 % 13.41 C
360 28-07-2020 05:55:00 20.1 C 66 % 13.55 C
361 28-07-2020 06:00:00 20 C 66 % 13.46 C
362 28-07-2020 06:05:00 19.9 C 67 % 13.59 C
363 28-07-2020 06:10:00 19.8 C 67 % 13.5 C
364 28-07-2020 06:15:00 19.7 C 67 % 13.4 C
365 28-07-2020 06:20:00 19.7 C 68 % 13.63 C
366 28-07-2020 06:25:00 19.7 C 69 % 13.86 C
367 28-07-2020 06:30:00 19.6 C 70 % 13.98 C
368 28-07-2020 06:35:00 19.6 C 70 % 13.98 C
369 28-07-2020 06:40:00 19.6 C 70 % 13.98 C
370 28-07-2020 06:45:00 19.6 C 70 % 13.98 C
371 28-07-2020 06:50:00 19.6 C 69 % 13.76 C
372 28-07-2020 06:55:00 19.6 C 70 % 13.98 C
373 28-07-2020 07:00:00 19.6 C 70 % 13.98 C
374 28-07-2020 07:05:00 19.7 C 71 % 14.3 C
375 28-07-2020 07:10:00 19.7 C 70 % 14.08 C
Sensor: Nr:Datum:Temp:Feuchte:Taupunkt:
Aussen-T/F 376 28-07-2020 07:15:00 19.9 C 69 % 14.05 C
377 28-07-2020 07:20:00 20.1 C 68 % 14.01 C
378 28-07-2020 07:25:00 20.3 C 68 % 14.2 C
379 28-07-2020 07:30:00 20.4 C 68 % 14.3 C
380 28-07-2020 07:35:00 20.6 C 67 % 14.26 C
381 28-07-2020 07:40:00 20.7 C 67 % 14.36 C
382 28-07-2020 07:45:00 20.9 C 68 % 14.77 C
383 28-07-2020 07:50:00 21.1 C 69 % 15.19 C
384 28-07-2020 07:55:00 21.2 C 68 % 15.06 C
385 28-07-2020 08:00:00 21.3 C 68 % 15.16 C
386 28-07-2020 08:05:00 21.5 C 67 % 15.12 C
387 28-07-2020 08:10:00 21.6 C 67 % 15.21 C
388 28-07-2020 08:15:00 21.6 C 66 % 14.98 C
389 28-07-2020 08:20:00 21.7 C 66 % 15.07 C
390 28-07-2020 08:25:00 21.8 C 67 % 15.4 C
391 28-07-2020 08:30:00 21.8 C 67 % 15.4 C
392 28-07-2020 08:35:00 21.9 C 67 % 15.5 C
393 28-07-2020 08:40:00 21.9 C 68 % 15.73 C
394 28-07-2020 08:45:00 21.8 C 69 % 15.86 C
395 28-07-2020 08:50:00 21.8 C 69 % 15.86 C
396 28-07-2020 08:55:00 21.9 C 69 % 15.96 C
397 28-07-2020 09:00:00 22 C 69 % 16.05 C
398 28-07-2020 09:05:00 22.1 C 68 % 15.92 C
399 28-07-2020 09:10:00 22.2 C 68 % 16.01 C
400 28-07-2020 09:15:00 22.3 C 68 % 16.11 C
Sensor: Nr:Datum:Temp:Feuchte:Taupunkt:
Aussen-T/F 401 28-07-2020 09:20:00 22.4 C 68 % 16.2 C
402 28-07-2020 09:25:00 22.5 C 67 % 16.07 C
403 28-07-2020 09:30:00 22.6 C 67 % 16.16 C
404 28-07-2020 09:35:00 22.8 C 67 % 16.35 C
405 28-07-2020 09:40:00 22.9 C 65 % 15.97 C
406 28-07-2020 09:45:00 22.9 C 66 % 16.21 C
407 28-07-2020 09:50:00 22.9 C 64 % 15.73 C
408 28-07-2020 09:55:00 22.9 C 63 % 15.48 C
409 28-07-2020 10:00:00 22.8 C 63 % 15.39 C
410 28-07-2020 10:05:00 22.8 C 63 % 15.39 C
411 28-07-2020 10:10:00 22.8 C 63 % 15.39 C
412 28-07-2020 10:15:00 22.9 C 62 % 15.23 C
413 28-07-2020 10:20:00 22.8 C 63 % 15.39 C
414 28-07-2020 10:25:00 22.7 C 63 % 15.3 C
415 28-07-2020 10:30:00 22.7 C 62 % 15.05 C
416 28-07-2020 10:35:00 22.8 C 61 % 14.89 C
417 28-07-2020 10:40:00 23.1 C 61 % 15.17 C
418 28-07-2020 10:45:00 23.6 C 58 % 14.86 C
419 28-07-2020 10:50:00 23.7 C 57 % 14.68 C
420 28-07-2020 10:55:00 23.7 C 58 % 14.95 C
421 28-07-2020 11:00:00 23.7 C 58 % 14.95 C
422 28-07-2020 11:05:00 23.7 C 57 % 14.68 C
423 28-07-2020 11:10:00 23.7 C 57 % 14.68 C
424 28-07-2020 11:15:00 23.7 C 57 % 14.68 C
425 28-07-2020 11:20:00 23.6 C 57 % 14.59 C
Sensor: Nr:Datum:Temp:Feuchte:Taupunkt:
Aussen-T/F 426 28-07-2020 11:25:00 23.7 C 57 % 14.68 C
427 28-07-2020 11:30:00 23.7 C 57 % 14.68 C
428 28-07-2020 11:35:00 23.8 C 57 % 14.77 C
429 28-07-2020 11:40:00 23.8 C 56 % 14.5 C
430 28-07-2020 11:45:00 24 C 56 % 14.68 C
431 28-07-2020 11:50:00 24.2 C 55 % 14.59 C
432 28-07-2020 11:55:00 24.4 C 55 % 14.78 C
433 28-07-2020 12:00:00 24.3 C 54 % 14.4 C
434 28-07-2020 12:05:00 24.1 C 54 % 14.21 C
435 28-07-2020 12:10:00 23.8 C 55 % 14.22 C
436 28-07-2020 12:15:00 23.8 C 55 % 14.22 C
437 28-07-2020 12:20:00 24 C 55 % 14.41 C
438 28-07-2020 12:25:00 24.3 C 54 % 14.4 C
439 28-07-2020 12:30:00 24.7 C 53 % 14.48 C
440 28-07-2020 12:35:00 24.7 C 53 % 14.48 C
441 28-07-2020 12:40:00 24.6 C 53 % 14.39 C
442 28-07-2020 12:45:00 24.6 C 54 % 14.68 C
443 28-07-2020 12:50:00 24.9 C 49 % 13.46 C
444 28-07-2020 12:55:00 25.3 C 48 % 13.5 C
445 28-07-2020 13:00:00 25.5 C 49 % 14 C
446 28-07-2020 13:05:00 25.5 C 48 % 13.69 C
447 28-07-2020 13:10:00 25.4 C 47 % 13.27 C
448 28-07-2020 13:15:00 25.4 C 48 % 13.6 C
449 28-07-2020 13:20:00 25.7 C 46 % 13.22 C
450 28-07-2020 13:25:00 25.6 C 47 % 13.45 C
Sensor: Nr:Datum:Temp:Feuchte:Taupunkt:
Aussen-T/F 451 28-07-2020 13:30:00 25.6 C 47 % 13.45 C
452 28-07-2020 13:35:00 25.7 C 45 % 12.88 C
453 28-07-2020 13:40:00 25.8 C 44 % 12.63 C
454 28-07-2020 13:45:00 25.7 C 45 % 12.88 C
455 28-07-2020 13:50:00 25.5 C 46 % 13.03 C
456 28-07-2020 13:55:00 25.4 C 47 % 13.27 C
457 28-07-2020 14:00:00 25.6 C 46 % 13.12 C
458 28-07-2020 14:05:00 25.7 C 44 % 12.54 C
459 28-07-2020 14:10:00 25.8 C 45 % 12.97 C
460 28-07-2020 14:15:00 26.1 C 43 % 12.55 C
461 28-07-2020 14:20:00 26.1 C 45 % 13.24 C
462 28-07-2020 14:25:00 26 C 45 % 13.15 C
463 28-07-2020 14:30:00 25.9 C 44 % 12.72 C
464 28-07-2020 14:35:00 25.9 C 44 % 12.72 C
465 28-07-2020 14:40:00 25.9 C 44 % 12.72 C
466 28-07-2020 14:45:00 25.9 C 43 % 12.37 C
467 28-07-2020 14:50:00 26.1 C 41 % 11.82 C
468 28-07-2020 14:55:00 26.2 C 42 % 12.28 C
469 28-07-2020 15:00:00 26.3 C 43 % 12.73 C
470 28-07-2020 15:05:00 26.4 C 41 % 12.09 C
471 28-07-2020 15:10:00 26.5 C 41 % 12.18 C
472 28-07-2020 15:15:00 26.4 C 41 % 12.09 C
473 28-07-2020 15:20:00 26.4 C 40 % 11.72 C
474 28-07-2020 15:25:00 26.3 C 41 % 12 C
475 28-07-2020 15:30:00 26.3 C 42 % 12.37 C
Sensor: Nr:Datum:Temp:Feuchte:Taupunkt:
Aussen-T/F 476 28-07-2020 15:35:00 26.2 C 42 % 12.28 C
477 28-07-2020 15:40:00 26.1 C 40 % 11.45 C
478 28-07-2020 15:45:00 26.1 C 40 % 11.45 C
479 28-07-2020 15:50:00 26.1 C 40 % 11.45 C
480 28-07-2020 15:55:00 26.1 C 40 % 11.45 C
481 28-07-2020 16:00:00 26.4 C 39 % 11.34 C
482 28-07-2020 16:05:00 26.5 C 40 % 11.81 C
483 28-07-2020 16:10:00 26.6 C 41 % 12.27 C
484 28-07-2020 16:15:00 26.6 C 41 % 12.27 C
485 28-07-2020 16:20:00 26.8 C 40 % 12.07 C
486 28-07-2020 16:25:00 27.1 C 39 % 11.96 C
487 28-07-2020 16:30:00 27.3 C 39 % 12.13 C
488 28-07-2020 16:35:00 27.2 C 38 % 11.65 C
489 28-07-2020 16:40:00 27.2 C 39 % 12.05 C
490 28-07-2020 16:45:00 27.3 C 39 % 12.13 C
491 28-07-2020 16:50:00 27.6 C 38 % 12.01 C
492 28-07-2020 16:55:00 27.7 C 39 % 12.49 C
493 28-07-2020 17:00:00 27.3 C 39 % 12.13 C
494 28-07-2020 17:05:00 27.1 C 39 % 11.96 C
495 28-07-2020 17:10:00 27.1 C 40 % 12.34 C
496 28-07-2020 17:15:00 27.6 C 39 % 12.4 C
497 28-07-2020 17:20:00 27.9 C 36 % 11.45 C
498 28-07-2020 17:25:00 27.7 C 36 % 11.28 C
499 28-07-2020 17:30:00 27.7 C 36 % 11.28 C
500 28-07-2020 17:35:00 27.4 C 36 % 11.01 C
Sensor: Nr:Datum:Temp:Feuchte:Taupunkt:
Aussen-T/F 501 28-07-2020 17:40:00 27.1 C 37 % 11.16 C
502 28-07-2020 17:45:00 27.2 C 36 % 10.84 C
503 28-07-2020 17:50:00 27.2 C 35 % 10.42 C
504 28-07-2020 17:55:00 27.5 C 34 % 10.24 C
505 28-07-2020 18:00:00 27.7 C 35 % 10.85 C
506 28-07-2020 18:05:00 27.4 C 35 % 10.59 C
507 28-07-2020 18:10:00 27.2 C 37 % 11.25 C
508 28-07-2020 18:15:00 27.3 C 37 % 11.34 C
509 28-07-2020 18:20:00 27.4 C 36 % 11.01 C
510 28-07-2020 18:25:00 27.1 C 37 % 11.16 C
511 28-07-2020 18:30:00 27.1 C 38 % 11.56 C
512 28-07-2020 18:35:00 27.2 C 37 % 11.25 C
513 28-07-2020 18:40:00 27.2 C 37 % 11.25 C
514 28-07-2020 18:45:00 27.2 C 36 % 10.84 C
515 28-07-2020 18:50:00 27.2 C 37 % 11.25 C
516 28-07-2020 18:55:00 27.3 C 37 % 11.34 C
517 28-07-2020 19:00:00 27.3 C 37 % 11.34 C
518 28-07-2020 19:05:00 27.1 C 37 % 11.16 C
519 28-07-2020 19:10:00 26.6 C 38 % 11.12 C
520 28-07-2020 19:15:00 26.1 C 38 % 10.68 C
521 28-07-2020 19:20:00 25.7 C 39 % 10.71 C
522 28-07-2020 19:25:00 25.4 C 40 % 10.83 C
523 28-07-2020 19:30:00 25.3 C 40 % 10.74 C
524 28-07-2020 19:35:00 25.3 C 39 % 10.36 C
525 28-07-2020 19:40:00 25.1 C 39 % 10.18 C
Sensor: Nr:Datum:Temp:Feuchte:Taupunkt:
Aussen-T/F 526 28-07-2020 19:45:00 24.8 C 39 % 9.91 C
527 28-07-2020 19:50:00 24.6 C 39 % 9.73 C
528 28-07-2020 19:55:00 24.2 C 40 % 9.75 C
529 28-07-2020 20:00:00 23.9 C 40 % 9.49 C
530 28-07-2020 20:05:00 23.9 C 40 % 9.49 C
531 28-07-2020 20:10:00 23.9 C 41 % 9.85 C
532 28-07-2020 20:15:00 23.9 C 40 % 9.49 C
533 28-07-2020 20:20:00 23.7 C 41 % 9.68 C
534 28-07-2020 20:25:00 23.4 C 42 % 9.77 C
535 28-07-2020 20:30:00 23.2 C 42 % 9.59 C
536 28-07-2020 20:35:00 23.1 C 44 % 10.19 C
537 28-07-2020 20:40:00 22.7 C 46 % 10.49 C
538 28-07-2020 20:45:00 22.4 C 46 % 10.22 C
539 28-07-2020 20:50:00 22.2 C 46 % 10.04 C
540 28-07-2020 20:55:00 21.9 C 46 % 9.77 C
541 28-07-2020 21:00:00 21.8 C 47 % 9.99 C
542 28-07-2020 21:05:00 21.7 C 47 % 9.9 C
543 28-07-2020 21:10:00 21.6 C 46 % 9.49 C
544 28-07-2020 21:15:00 21.4 C 46 % 9.31 C
545 28-07-2020 21:20:00 21.3 C 48 % 9.85 C
546 28-07-2020 21:25:00 21.2 C 49 % 10.07 C
547 28-07-2020 21:30:00 21 C 48 % 9.58 C
548 28-07-2020 21:35:00 20.9 C 49 % 9.79 C
549 28-07-2020 21:40:00 20.7 C 50 % 9.91 C
550 28-07-2020 21:45:00 20.5 C 52 % 10.31 C
Sensor: Nr:Datum:Temp:Feuchte:Taupunkt:
Aussen-T/F 551 28-07-2020 21:50:00 20.2 C 52 % 10.04 C
552 28-07-2020 21:55:00 19.9 C 52 % 9.76 C
553 28-07-2020 22:00:00 19.7 C 53 % 9.86 C
554 28-07-2020 22:05:00 19.6 C 54 % 10.05 C
555 28-07-2020 22:10:00 19.4 C 54 % 9.86 C
556 28-07-2020 22:15:00 19.4 C 54 % 9.86 C
557 28-07-2020 22:20:00 19.3 C 54 % 9.77 C
558 28-07-2020 22:25:00 19.3 C 54 % 9.77 C
559 28-07-2020 22:30:00 19.2 C 54 % 9.67 C
560 28-07-2020 22:35:00 19.2 C 55 % 9.95 C
561 28-07-2020 22:40:00 19.2 C 55 % 9.95 C
562 28-07-2020 22:45:00 19.2 C 55 % 9.95 C
563 28-07-2020 22:50:00 19.1 C 56 % 10.12 C
564 28-07-2020 22:55:00 19.1 C 56 % 10.12 C
565 28-07-2020 23:00:00 19.1 C 56 % 10.12 C
566 28-07-2020 23:05:00 19.1 C 56 % 10.12 C
567 28-07-2020 23:10:00 19 C 56 % 10.03 C
568 28-07-2020 23:15:00 19.1 C 57 % 10.39 C
569 28-07-2020 23:20:00 19.1 C 57 % 10.39 C
570 28-07-2020 23:25:00 18.9 C 57 % 10.2 C
571 28-07-2020 23:30:00 18.8 C 58 % 10.37 C
572 28-07-2020 23:35:00 18.6 C 59 % 10.44 C
573 28-07-2020 23:40:00 18.4 C 59 % 10.25 C
574 28-07-2020 23:45:00 18.2 C 60 % 10.31 C
575 28-07-2020 23:50:00 18 C 61 % 10.37 C
Sensor: Nr:Datum:Temp:Feuchte:Taupunkt:
Aussen-T/F 576 28-07-2020 23:55:00 17.7 C 61 % 10.09 C
577 29-07-2020 00:00:00 17.4 C 62 % 10.05 C
578 29-07-2020 00:05:00 17.2 C 63 % 10.1 C
579 29-07-2020 00:10:00 17 C 64 % 10.15 C
580 29-07-2020 00:15:00 16.8 C 65 % 10.19 C
581 29-07-2020 00:20:00 16.6 C 66 % 10.23 C
582 29-07-2020 00:25:00 16.4 C 66 % 10.04 C
583 29-07-2020 00:30:00 16.3 C 67 % 10.17 C
584 29-07-2020 00:35:00 16.1 C 67 % 9.98 C
585 29-07-2020 00:40:00 16.1 C 68 % 10.2 C
586 29-07-2020 00:45:00 16 C 69 % 10.32 C
587 29-07-2020 00:50:00 15.9 C 69 % 10.23 C
588 29-07-2020 00:55:00 15.9 C 70 % 10.44 C
589 29-07-2020 01:00:00 15.9 C 70 % 10.44 C
590 29-07-2020 01:05:00 16 C 71 % 10.75 C
591 29-07-2020 01:10:00 16 C 71 % 10.75 C
592 29-07-2020 01:15:00 16 C 72 % 10.96 C
593 29-07-2020 01:20:00 15.9 C 73 % 11.07 C
594 29-07-2020 01:25:00 15.9 C 74 % 11.28 C
595 29-07-2020 01:30:00 15.9 C 74 % 11.28 C
596 29-07-2020 01:35:00 15.9 C 74 % 11.28 C
597 29-07-2020 01:40:00 15.9 C 74 % 11.28 C
598 29-07-2020 01:45:00 15.9 C 75 % 11.48 C
599 29-07-2020 01:50:00 16 C 75 % 11.57 C
600 29-07-2020 01:55:00 16 C 75 % 11.57 C
Sensor: Nr:Datum:Temp:Feuchte:Taupunkt:
Aussen-T/F 601 29-07-2020 02:00:00 15.9 C 75 % 11.48 C
602 29-07-2020 02:05:00 15.8 C 75 % 11.38 C
603 29-07-2020 02:10:00 15.7 C 75 % 11.28 C
604 29-07-2020 02:15:00 15.6 C 75 % 11.19 C
605 29-07-2020 02:20:00 15.4 C 75 % 11 C
606 29-07-2020 02:25:00 15.3 C 76 % 11.1 C
607 29-07-2020 02:30:00 15.1 C 76 % 10.9 C
608 29-07-2020 02:35:00 14.9 C 76 % 10.71 C
609 29-07-2020 02:40:00 14.8 C 77 % 10.81 C
610 29-07-2020 02:45:00 14.7 C 77 % 10.71 C
611 29-07-2020 02:50:00 14.6 C 77 % 10.62 C
612 29-07-2020 02:55:00 14.4 C 78 % 10.62 C
613 29-07-2020 03:00:00 14.3 C 78 % 10.52 C
614 29-07-2020 03:05:00 14.2 C 79 % 10.61 C
615 29-07-2020 03:10:00 14.2 C 79 % 10.61 C
616 29-07-2020 03:15:00 14 C 80 % 10.61 C
617 29-07-2020 03:20:00 13.9 C 80 % 10.51 C
618 29-07-2020 03:25:00 13.7 C 80 % 10.32 C
619 29-07-2020 03:30:00 13.6 C 81 % 10.4 C
620 29-07-2020 03:35:00 13.4 C 81 % 10.21 C
621 29-07-2020 03:40:00 13.3 C 82 % 10.3 C
622 29-07-2020 03:45:00 13.1 C 82 % 10.1 C
623 29-07-2020 03:50:00 13 C 82 % 10 C
624 29-07-2020 03:55:00 12.8 C 83 % 9.99 C
625 29-07-2020 04:00:00 12.7 C 83 % 9.89 C
Sensor: Nr:Datum:Temp:Feuchte:Taupunkt:
Aussen-T/F 626 29-07-2020 04:05:00 12.6 C 84 % 9.97 C
627 29-07-2020 04:10:00 12.6 C 85 % 10.15 C
628 29-07-2020 04:15:00 12.6 C 85 % 10.15 C
629 29-07-2020 04:20:00 12.5 C 85 % 10.05 C
630 29-07-2020 04:25:00 12.4 C 85 % 9.95 C
631 29-07-2020 04:30:00 12.4 C 86 % 10.13 C
632 29-07-2020 04:35:00 12.4 C 86 % 10.13 C
633 29-07-2020 04:40:00 12.3 C 86 % 10.03 C
634 29-07-2020 04:45:00 12.3 C 86 % 10.03 C
635 29-07-2020 04:50:00 12.2 C 86 % 9.93 C
636 29-07-2020 04:55:00 12.1 C 86 % 9.83 C
637 29-07-2020 05:00:00 12 C 86 % 9.73 C
638 29-07-2020 05:05:00 11.9 C 87 % 9.81 C
639 29-07-2020 05:10:00 11.8 C 87 % 9.71 C
640 29-07-2020 05:15:00 11.7 C 87 % 9.61 C
641 29-07-2020 05:20:00 11.7 C 87 % 9.61 C
642 29-07-2020 05:25:00 11.6 C 88 % 9.68 C
643 29-07-2020 05:30:00 11.6 C 88 % 9.68 C
644 29-07-2020 05:35:00 11.6 C 88 % 9.68 C
645 29-07-2020 05:40:00 11.7 C 88 % 9.78 C
646 29-07-2020 05:45:00 11.7 C 88 % 9.78 C
647 29-07-2020 05:50:00 11.6 C 88 % 9.68 C
648 29-07-2020 05:55:00 11.6 C 88 % 9.68 C
649 29-07-2020 06:00:00 11.7 C 89 % 9.95 C
650 29-07-2020 06:05:00 11.7 C 88 % 9.78 C
Sensor: Nr:Datum:Temp:Feuchte:Taupunkt:
Aussen-T/F 651 29-07-2020 06:10:00 11.8 C 88 % 9.88 C
652 29-07-2020 06:15:00 11.8 C 88 % 9.88 C
653 29-07-2020 06:20:00 11.7 C 88 % 9.78 C
654 29-07-2020 06:25:00 11.7 C 88 % 9.78 C
655 29-07-2020 06:30:00 11.7 C 88 % 9.78 C
656 29-07-2020 06:35:00 11.6 C 88 % 9.68 C
657 29-07-2020 06:40:00 11.6 C 88 % 9.68 C
658 29-07-2020 06:45:00 11.6 C 88 % 9.68 C
659 29-07-2020 06:50:00 11.7 C 89 % 9.95 C
660 29-07-2020 06:55:00 11.8 C 89 % 10.05 C
661 29-07-2020 07:00:00 11.8 C 88 % 9.88 C
662 29-07-2020 07:05:00 11.8 C 88 % 9.88 C
663 29-07-2020 07:10:00 11.8 C 88 % 9.88 C
664 29-07-2020 07:15:00 11.8 C 88 % 9.88 C
665 29-07-2020 07:20:00 11.9 C 88 % 9.98 C
666 29-07-2020 07:25:00 11.9 C 88 % 9.98 C
667 29-07-2020 07:30:00 11.9 C 88 % 9.98 C
668 29-07-2020 07:35:00 12.1 C 88 % 10.17 C
669 29-07-2020 07:40:00 12.2 C 88 % 10.27 C
670 29-07-2020 07:45:00 12.3 C 87 % 10.2 C
671 29-07-2020 07:50:00 12.4 C 87 % 10.3 C
672 29-07-2020 07:55:00 12.5 C 87 % 10.4 C
673 29-07-2020 08:00:00 12.6 C 87 % 10.5 C
674 29-07-2020 08:05:00 12.6 C 87 % 10.5 C
675 29-07-2020 08:10:00 12.6 C 87 % 10.5 C
Sensor: Nr:Datum:Temp:Feuchte:Taupunkt:
Aussen-T/F 676 29-07-2020 08:15:00 12.7 C 87 % 10.59 C
677 29-07-2020 08:20:00 12.7 C 87 % 10.59 C
678 29-07-2020 08:25:00 12.8 C 87 % 10.69 C
679 29-07-2020 08:30:00 12.9 C 87 % 10.79 C
680 29-07-2020 08:35:00 13.2 C 86 % 10.91 C
681 29-07-2020 08:40:00 13.4 C 85 % 10.93 C
682 29-07-2020 08:45:00 13.7 C 84 % 11.05 C
683 29-07-2020 08:50:00 13.9 C 83 % 11.06 C
684 29-07-2020 08:55:00 14.1 C 82 % 11.08 C
685 29-07-2020 09:00:00 14.3 C 81 % 11.09 C
686 29-07-2020 09:05:00 14.4 C 82 % 11.37 C
687 29-07-2020 09:10:00 14.6 C 80 % 11.19 C
688 29-07-2020 09:15:00 14.9 C 80 % 11.48 C
689 29-07-2020 09:20:00 15.1 C 79 % 11.49 C
690 29-07-2020 09:25:00 15.3 C 77 % 11.3 C
691 29-07-2020 09:30:00 15.6 C 76 % 11.39 C
692 29-07-2020 09:35:00 15.9 C 75 % 11.48 C
693 29-07-2020 09:40:00 16.2 C 74 % 11.56 C
694 29-07-2020 09:45:00 16.4 C 73 % 11.55 C
695 29-07-2020 09:50:00 16.6 C 72 % 11.54 C
696 29-07-2020 09:55:00 16.7 C 71 % 11.42 C
697 29-07-2020 10:00:00 16.9 C 70 % 11.4 C
698 29-07-2020 10:05:00 17.1 C 70 % 11.59 C
699 29-07-2020 10:10:00 17.2 C 69 % 11.47 C
700 29-07-2020 10:15:00 17.4 C 68 % 11.44 C
Sensor: Nr:Datum:Temp:Feuchte:Taupunkt:
Aussen-T/F 701 29-07-2020 10:20:00 17.7 C 66 % 11.27 C
702 29-07-2020 10:25:00 18 C 66 % 11.56 C
703 29-07-2020 10:30:00 18.3 C 66 % 11.84 C
704 29-07-2020 10:35:00 18.4 C 63 % 11.23 C
705 29-07-2020 10:40:00 18.8 C 61 % 11.13 C
706 29-07-2020 10:45:00 19.1 C 60 % 11.16 C
707 29-07-2020 10:50:00 19.2 C 59 % 11 C
708 29-07-2020 10:55:00 19.4 C 60 % 11.44 C
709 29-07-2020 11:00:00 19.6 C 59 % 11.37 C
710 29-07-2020 11:05:00 19.8 C 58 % 11.3 C
711 29-07-2020 11:10:00 19.9 C 57 % 11.14 C
712 29-07-2020 11:15:00 20.1 C 58 % 11.58 C
713 29-07-2020 11:20:00 20.3 C 58 % 11.77 C
714 29-07-2020 11:25:00 20.3 C 57 % 11.51 C
715 29-07-2020 11:30:00 20.4 C 57 % 11.6 C
716 29-07-2020 11:35:00 20.5 C 57 % 11.7 C
717 29-07-2020 11:40:00 20.6 C 56 % 11.52 C
718 29-07-2020 11:45:00 20.8 C 55 % 11.43 C
719 29-07-2020 11:50:00 20.9 C 54 % 11.25 C
720 29-07-2020 11:55:00 20.9 C 54 % 11.25 C
721 29-07-2020 12:00:00 21.2 C 53 % 11.25 C
722 29-07-2020 12:05:00 21.3 C 53 % 11.34 C
723 29-07-2020 12:10:00 21.3 C 52 % 11.05 C
724 29-07-2020 12:15:00 21.4 C 53 % 11.43 C
725 29-07-2020 12:20:00 21.3 C 53 % 11.34 C
Sensor: Nr:Datum:Temp:Feuchte:Taupunkt:
Aussen-T/F 726 29-07-2020 12:25:00 21.2 C 53 % 11.25 C
727 29-07-2020 12:30:00 21.1 C 53 % 11.15 C
728 29-07-2020 12:35:00 21.2 C 53 % 11.25 C
729 29-07-2020 12:40:00 21.2 C 50 % 10.37 C
730 29-07-2020 12:45:00 21.3 C 50 % 10.46 C
731 29-07-2020 12:50:00 21.5 C 51 % 10.94 C
732 29-07-2020 12:55:00 21.6 C 50 % 10.74 C
733 29-07-2020 13:00:00 21.7 C 50 % 10.83 C
734 29-07-2020 13:05:00 21.7 C 50 % 10.83 C
735 29-07-2020 13:10:00 21.7 C 49 % 10.53 C
736 29-07-2020 13:15:00 21.8 C 50 % 10.92 C
737 29-07-2020 13:20:00 21.8 C 48 % 10.31 C
738 29-07-2020 13:25:00 21.9 C 46 % 9.77 C
739 29-07-2020 13:30:00 22.1 C 46 % 9.95 C
740 29-07-2020 13:35:00 22.2 C 46 % 10.04 C
741 29-07-2020 13:40:00 22.4 C 47 % 10.54 C
742 29-07-2020 13:45:00 22.6 C 46 % 10.4 C
743 29-07-2020 13:50:00 22.8 C 45 % 10.25 C
744 29-07-2020 13:55:00 22.9 C 44 % 10.01 C
745 29-07-2020 14:00:00 22.8 C 44 % 9.92 C
746 29-07-2020 14:05:00 22.9 C 45 % 10.34 C
747 29-07-2020 14:10:00 23.3 C 43 % 10.03 C
748 29-07-2020 14:15:00 23.5 C 42 % 9.86 C
749 29-07-2020 14:20:00 23.6 C 43 % 10.3 C
750 29-07-2020 14:25:00 23.7 C 42 % 10.03 C
Sensor: Nr:Datum:Temp:Feuchte:Taupunkt:
Aussen-T/F 751 29-07-2020 14:30:00 23.7 C 42 % 10.03 C
752 29-07-2020 14:35:00 23.9 C 41 % 9.85 C
753 29-07-2020 14:40:00 24.1 C 41 % 10.03 C
754 29-07-2020 14:45:00 24.2 C 38 % 8.99 C
755 29-07-2020 14:50:00 24.4 C 41 % 10.3 C
756 29-07-2020 14:55:00 24.6 C 40 % 10.11 C
757 29-07-2020 15:00:00 24.7 C 40 % 10.2 C
758 29-07-2020 15:05:00 24.8 C 40 % 10.29 C
759 29-07-2020 15:10:00 24.9 C 41 % 10.75 C
760 29-07-2020 15:15:00 25.2 C 40 % 10.65 C
761 29-07-2020 15:20:00 25.4 C 38 % 10.06 C
762 29-07-2020 15:25:00 25.4 C 37 % 9.66 C
763 29-07-2020 15:30:00 25.4 C 37 % 9.66 C
764 29-07-2020 15:35:00 25.4 C 37 % 9.66 C
765 29-07-2020 15:40:00 25.4 C 37 % 9.66 C
766 29-07-2020 15:45:00 25.7 C 36 % 9.52 C
767 29-07-2020 15:50:00 26.1 C 37 % 10.28 C
768 29-07-2020 15:55:00 26.4 C 36 % 10.13 C
769 29-07-2020 16:00:00 26.2 C 38 % 10.77 C
770 29-07-2020 16:05:00 26.4 C 36 % 10.13 C
771 29-07-2020 16:10:00 26.5 C 37 % 10.63 C
772 29-07-2020 16:15:00 26.6 C 36 % 10.31 C
773 29-07-2020 16:20:00 26.7 C 36 % 10.4 C
774 29-07-2020 16:25:00 26.8 C 36 % 10.49 C
775 29-07-2020 16:30:00 26.8 C 36 % 10.49 C
Sensor: Nr:Datum:Temp:Feuchte:Taupunkt:
Aussen-T/F 776 29-07-2020 16:35:00 26.7 C 35 % 9.98 C
777 29-07-2020 16:40:00 26.8 C 36 % 10.49 C
778 29-07-2020 16:45:00 27.1 C 36 % 10.75 C
779 29-07-2020 16:50:00 27.1 C 35 % 10.33 C
780 29-07-2020 16:55:00 26.7 C 36 % 10.4 C
781 29-07-2020 17:00:00 26.6 C 37 % 10.72 C
782 29-07-2020 17:05:00 26.8 C 36 % 10.49 C
783 29-07-2020 17:10:00 26.9 C 35 % 10.15 C
784 29-07-2020 17:15:00 26.6 C 36 % 10.31 C
785 29-07-2020 17:20:00 26.6 C 36 % 10.31 C
786 29-07-2020 17:25:00 26.8 C 36 % 10.49 C
787 29-07-2020 17:30:00 27.1 C 36 % 10.75 C
788 29-07-2020 17:35:00 27.2 C 35 % 10.42 C
789 29-07-2020 17:40:00 27.3 C 35 % 10.5 C
790 29-07-2020 17:45:00 27.4 C 34 % 10.16 C
791 29-07-2020 17:50:00 27.3 C 34 % 10.07 C
792 29-07-2020 17:55:00 27.3 C 35 % 10.5 C
793 29-07-2020 18:00:00 27.1 C 35 % 10.33 C
794 29-07-2020 18:05:00 27 C 35 % 10.24 C
795 29-07-2020 18:10:00 27.1 C 35 % 10.33 C
796 29-07-2020 18:15:00 27.1 C 35 % 10.33 C
797 29-07-2020 18:20:00 27 C 36 % 10.66 C
798 29-07-2020 18:25:00 27.1 C 36 % 10.75 C
799 29-07-2020 18:30:00 27.1 C 36 % 10.75 C
800 29-07-2020 18:35:00 27.1 C 36 % 10.75 C
Sensor: Nr:Datum:Temp:Feuchte:Taupunkt:
Aussen-T/F 801 29-07-2020 18:40:00 26.8 C 36 % 10.49 C
802 29-07-2020 18:45:00 26.6 C 37 % 10.72 C
803 29-07-2020 18:50:00 26.4 C 38 % 10.94 C
804 29-07-2020 18:55:00 26.5 C 37 % 10.63 C
805 29-07-2020 19:00:00 26.6 C 37 % 10.72 C
806 29-07-2020 19:05:00 26.4 C 37 % 10.54 C
807 29-07-2020 19:10:00 26.3 C 38 % 10.86 C
808 29-07-2020 19:15:00 26 C 38 % 10.59 C
809 29-07-2020 19:20:00 25.8 C 39 % 10.8 C
810 29-07-2020 19:25:00 25.7 C 40 % 11.09 C
811 29-07-2020 19:30:00 25.6 C 41 % 11.38 C
812 29-07-2020 19:35:00 25.4 C 40 % 10.83 C
813 29-07-2020 19:40:00 25.4 C 40 % 10.83 C
814 29-07-2020 19:45:00 25.2 C 40 % 10.65 C
815 29-07-2020 19:50:00 24.9 C 42 % 11.11 C
816 29-07-2020 19:55:00 24.8 C 42 % 11.02 C
817 29-07-2020 20:00:00 24.5 C 42 % 10.75 C
818 29-07-2020 20:05:00 24.4 C 43 % 11.02 C
819 29-07-2020 20:10:00 24.1 C 43 % 10.75 C
820 29-07-2020 20:15:00 23.9 C 44 % 10.91 C
821 29-07-2020 20:20:00 23.8 C 44 % 10.82 C
822 29-07-2020 20:25:00 23.6 C 44 % 10.64 C
823 29-07-2020 20:30:00 23.4 C 45 % 10.8 C
824 29-07-2020 20:35:00 23.3 C 45 % 10.71 C
825 29-07-2020 20:40:00 23.1 C 46 % 10.86 C
Sensor: Nr:Datum:Temp:Feuchte:Taupunkt:
Aussen-T/F 826 29-07-2020 20:45:00 23 C 46 % 10.76 C
827 29-07-2020 20:50:00 22.8 C 46 % 10.58 C
828 29-07-2020 20:55:00 22.7 C 47 % 10.81 C
829 29-07-2020 21:00:00 22.4 C 47 % 10.54 C
830 29-07-2020 21:05:00 22.3 C 47 % 10.45 C
831 29-07-2020 21:10:00 22.2 C 48 % 10.67 C
832 29-07-2020 21:15:00 22.1 C 49 % 10.89 C
833 29-07-2020 21:20:00 21.9 C 51 % 11.31 C
834 29-07-2020 21:25:00 21.6 C 52 % 11.33 C
835 29-07-2020 21:30:00 21.3 C 52 % 11.05 C
836 29-07-2020 21:35:00 20.9 C 52 % 10.68 C
837 29-07-2020 21:40:00 20.6 C 54 % 10.97 C
838 29-07-2020 21:45:00 20.2 C 54 % 10.6 C
839 29-07-2020 21:50:00 19.9 C 55 % 10.6 C
840 29-07-2020 21:55:00 19.6 C 57 % 10.86 C
841 29-07-2020 22:00:00 19.3 C 57 % 10.58 C
842 29-07-2020 22:05:00 19 C 58 % 10.56 C
843 29-07-2020 22:10:00 18.7 C 59 % 10.53 C
844 29-07-2020 22:15:00 18.4 C 61 % 10.75 C
845 29-07-2020 22:20:00 18.2 C 61 % 10.56 C
846 29-07-2020 22:25:00 18 C 61 % 10.37 C
847 29-07-2020 22:30:00 17.8 C 62 % 10.43 C
848 29-07-2020 22:35:00 17.7 C 62 % 10.33 C
849 29-07-2020 22:40:00 17.7 C 63 % 10.57 C
850 29-07-2020 22:45:00 17.6 C 63 % 10.48 C
Sensor: Nr:Datum:Temp:Feuchte:Taupunkt:
Aussen-T/F 851 29-07-2020 22:50:00 17.5 C 63 % 10.38 C
852 29-07-2020 22:55:00 17.4 C 63 % 10.29 C
853 29-07-2020 23:00:00 17.4 C 64 % 10.53 C
854 29-07-2020 23:05:00 17.3 C 64 % 10.43 C
855 29-07-2020 23:10:00 17.2 C 65 % 10.57 C
856 29-07-2020 23:15:00 17.1 C 65 % 10.47 C
857 29-07-2020 23:20:00 16.9 C 66 % 10.51 C
858 29-07-2020 23:25:00 16.9 C 66 % 10.51 C
859 29-07-2020 23:30:00 16.8 C 67 % 10.64 C
860 29-07-2020 23:35:00 16.7 C 67 % 10.55 C
861 29-07-2020 23:40:00 16.5 C 67 % 10.36 C
862 29-07-2020 23:45:00 16.4 C 68 % 10.48 C
863 29-07-2020 23:50:00 16.3 C 69 % 10.61 C
864 29-07-2020 23:55:00 16.1 C 69 % 10.42 C
865 30-07-2020 00:00:00 16 C 70 % 10.54 C
866 30-07-2020 00:05:00 15.9 C 70 % 10.44 C
867 30-07-2020 00:10:00 15.8 C 70 % 10.34 C
868 30-07-2020 00:15:00 15.6 C 71 % 10.37 C
869 30-07-2020 00:20:00 15.4 C 72 % 10.38 C
870 30-07-2020 00:25:00 15.3 C 73 % 10.49 C
871 30-07-2020 00:30:00 15.2 C 73 % 10.4 C
872 30-07-2020 00:35:00 15.1 C 73 % 10.3 C
873 30-07-2020 00:40:00 15 C 74 % 10.41 C
874 30-07-2020 00:45:00 14.9 C 74 % 10.31 C
875 30-07-2020 00:50:00 14.8 C 74 % 10.22 C
Sensor: Nr:Datum:Temp:Feuchte:Taupunkt:
Aussen-T/F 876 30-07-2020 00:55:00 14.7 C 75 % 10.32 C
877 30-07-2020 01:00:00 14.6 C 75 % 10.22 C
878 30-07-2020 01:05:00 14.4 C 75 % 10.03 C
879 30-07-2020 01:10:00 14.3 C 76 % 10.13 C
880 30-07-2020 01:15:00 14.3 C 76 % 10.13 C
881 30-07-2020 01:20:00 14.2 C 77 % 10.23 C
882 30-07-2020 01:25:00 14.1 C 77 % 10.13 C
883 30-07-2020 01:30:00 14 C 77 % 10.04 C
884 30-07-2020 01:35:00 13.9 C 78 % 10.13 C
885 30-07-2020 01:40:00 13.8 C 78 % 10.03 C
886 30-07-2020 01:45:00 13.8 C 78 % 10.03 C
887 30-07-2020 01:50:00 13.7 C 79 % 10.13 C
888 30-07-2020 01:55:00 13.6 C 79 % 10.03 C
889 30-07-2020 02:00:00 13.6 C 79 % 10.03 C
890 30-07-2020 02:05:00 13.5 C 79 % 9.93 C
891 30-07-2020 02:10:00 13.4 C 79 % 9.84 C
892 30-07-2020 02:15:00 13.4 C 80 % 10.02 C
893 30-07-2020 02:20:00 13.3 C 80 % 9.93 C
894 30-07-2020 02:25:00 13.3 C 80 % 9.93 C
895 30-07-2020 02:30:00 13.2 C 80 % 9.83 C
896 30-07-2020 02:35:00 13.2 C 80 % 9.83 C
897 30-07-2020 02:40:00 13.1 C 81 % 9.92 C
898 30-07-2020 02:45:00 13 C 81 % 9.82 C
899 30-07-2020 02:50:00 12.9 C 81 % 9.72 C
900 30-07-2020 02:55:00 12.9 C 81 % 9.72 C
Sensor: Nr:Datum:Temp:Feuchte:Taupunkt:
Aussen-T/F 901 30-07-2020 03:00:00 12.8 C 82 % 9.81 C
902 30-07-2020 03:05:00 12.8 C 82 % 9.81 C
903 30-07-2020 03:10:00 12.7 C 82 % 9.71 C
904 30-07-2020 03:15:00 12.7 C 82 % 9.71 C
905 30-07-2020 03:20:00 12.6 C 82 % 9.61 C
906 30-07-2020 03:25:00 12.6 C 83 % 9.79 C
907 30-07-2020 03:30:00 12.4 C 83 % 9.6 C
908 30-07-2020 03:35:00 12.4 C 83 % 9.6 C
909 30-07-2020 03:40:00 12.3 C 83 % 9.5 C
910 30-07-2020 03:45:00 12.3 C 84 % 9.68 C
911 30-07-2020 03:50:00 12.3 C 84 % 9.68 C
912 30-07-2020 03:55:00 12.2 C 84 % 9.58 C
913 30-07-2020 04:00:00 12.2 C 84 % 9.58 C
914 30-07-2020 04:05:00 12.1 C 84 % 9.48 C
915 30-07-2020 04:10:00 12.1 C 84 % 9.48 C
916 30-07-2020 04:15:00 12 C 85 % 9.56 C
917 30-07-2020 04:20:00 11.9 C 85 % 9.46 C
918 30-07-2020 04:25:00 11.9 C 85 % 9.46 C
919 30-07-2020 04:30:00 11.8 C 85 % 9.36 C
920 30-07-2020 04:35:00 11.8 C 85 % 9.36 C
921 30-07-2020 04:40:00 11.7 C 86 % 9.44 C
922 30-07-2020 04:45:00 11.7 C 86 % 9.44 C
923 30-07-2020 04:50:00 11.7 C 86 % 9.44 C
924 30-07-2020 04:55:00 11.7 C 86 % 9.44 C
925 30-07-2020 05:00:00 11.6 C 86 % 9.34 C
Sensor: Nr:Datum:Temp:Feuchte:Taupunkt:
Aussen-T/F 926 30-07-2020 05:05:00 11.6 C 86 % 9.34 C
927 30-07-2020 05:10:00 11.5 C 87 % 9.41 C
928 30-07-2020 05:15:00 11.5 C 87 % 9.41 C
929 30-07-2020 05:20:00 11.5 C 87 % 9.41 C
930 30-07-2020 05:25:00 11.4 C 87 % 9.32 C
931 30-07-2020 05:30:00 11.4 C 87 % 9.32 C
932 30-07-2020 05:35:00 11.4 C 87 % 9.32 C
933 30-07-2020 05:40:00 11.3 C 87 % 9.22 C
934 30-07-2020 05:45:00 11.3 C 87 % 9.22 C
935 30-07-2020 05:50:00 11.3 C 88 % 9.39 C
936 30-07-2020 05:55:00 11.3 C 88 % 9.39 C
937 30-07-2020 06:00:00 11.2 C 88 % 9.29 C
938 30-07-2020 06:05:00 11.2 C 88 % 9.29 C
939 30-07-2020 06:10:00 11.2 C 88 % 9.29 C
940 30-07-2020 06:15:00 11.2 C 88 % 9.29 C
941 30-07-2020 06:20:00 11.2 C 88 % 9.29 C
942 30-07-2020 06:25:00 11.1 C 88 % 9.19 C
943 30-07-2020 06:30:00 11.1 C 89 % 9.36 C
944 30-07-2020 06:35:00 11.1 C 89 % 9.36 C
945 30-07-2020 06:40:00 11.2 C 89 % 9.46 C
946 30-07-2020 06:45:00 11.2 C 89 % 9.46 C
947 30-07-2020 06:50:00 11.2 C 89 % 9.46 C
948 30-07-2020 06:55:00 11.3 C 89 % 9.55 C
949 30-07-2020 07:00:00 11.3 C 90 % 9.72 C
950 30-07-2020 07:05:00 11.4 C 90 % 9.82 C
Sensor: Nr:Datum:Temp:Feuchte:Taupunkt:
Aussen-T/F 951 30-07-2020 07:10:00 11.4 C 90 % 9.82 C
952 30-07-2020 07:15:00 11.5 C 89 % 9.75 C
953 30-07-2020 07:20:00 11.6 C 90 % 10.02 C
954 30-07-2020 07:25:00 11.6 C 90 % 10.02 C
955 30-07-2020 07:30:00 11.7 C 90 % 10.12 C
956 30-07-2020 07:35:00 11.8 C 89 % 10.05 C
957 30-07-2020 07:40:00 11.8 C 89 % 10.05 C
958 30-07-2020 07:45:00 11.9 C 89 % 10.15 C
959 30-07-2020 07:50:00 11.9 C 89 % 10.15 C
960 30-07-2020 07:55:00 12 C 89 % 10.25 C
961 30-07-2020 08:00:00 12.1 C 89 % 10.34 C
962 30-07-2020 08:05:00 12.1 C 89 % 10.34 C
963 30-07-2020 08:10:00 12.2 C 89 % 10.44 C
964 30-07-2020 08:15:00 12.3 C 89 % 10.54 C
965 30-07-2020 08:20:00 12.4 C 89 % 10.64 C
966 30-07-2020 08:25:00 12.5 C 89 % 10.74 C
967 30-07-2020 08:30:00 12.6 C 89 % 10.84 C
968 30-07-2020 08:35:00 12.7 C 89 % 10.94 C
969 30-07-2020 08:40:00 12.8 C 89 % 11.03 C
970 30-07-2020 08:45:00 12.9 C 89 % 11.13 C
971 30-07-2020 08:50:00 13.1 C 89 % 11.33 C
972 30-07-2020 08:55:00 13.3 C 88 % 11.36 C
973 30-07-2020 09:00:00 13.4 C 88 % 11.45 C
974 30-07-2020 09:05:00 13.6 C 88 % 11.65 C
975 30-07-2020 09:10:00 13.7 C 87 % 11.58 C
Sensor: Nr:Datum:Temp:Feuchte:Taupunkt:
Aussen-T/F 976 30-07-2020 09:15:00 13.9 C 87 % 11.77 C
977 30-07-2020 09:20:00 14.1 C 86 % 11.8 C
978 30-07-2020 09:25:00 14.3 C 86 % 11.99 C
979 30-07-2020 09:30:00 14.6 C 85 % 12.11 C
980 30-07-2020 09:35:00 14.8 C 83 % 11.94 C
981 30-07-2020 09:40:00 15.2 C 83 % 12.33 C
982 30-07-2020 09:45:00 15.4 C 82 % 12.35 C
983 30-07-2020 09:50:00 15.7 C 81 % 12.45 C
984 30-07-2020 09:55:00 16 C 80 % 12.55 C
985 30-07-2020 10:00:00 16.3 C 76 % 12.07 C
986 30-07-2020 10:05:00 16.9 C 75 % 12.44 C
987 30-07-2020 10:10:00 17.4 C 75 % 12.93 C
988 30-07-2020 10:15:00 17.7 C 74 % 13.01 C
989 30-07-2020 10:20:00 18.1 C 70 % 12.55 C
990 30-07-2020 10:25:00 18.5 C 69 % 12.71 C
991 30-07-2020 10:30:00 18.9 C 66 % 12.41 C
992 30-07-2020 10:35:00 19.4 C 65 % 12.66 C
993 30-07-2020 10:40:00 19.9 C 63 % 12.65 C
994 30-07-2020 10:45:00 20.3 C 61 % 12.54 C
995 30-07-2020 10:50:00 20.6 C 60 % 12.57 C
996 30-07-2020 10:55:00 20.9 C 59 % 12.59 C
997 30-07-2020 11:00:00 21.2 C 57 % 12.35 C
998 30-07-2020 11:05:00 21.4 C 56 % 12.27 C
999 30-07-2020 11:10:00 21.6 C 57 % 12.72 C
1000 30-07-2020 11:15:00 21.7 C 58 % 13.08 C
Sensor: Nr:Datum:Temp:Feuchte:Taupunkt:
Aussen-T/F 1001 30-07-2020 11:20:00 21.8 C 56 % 12.64 C
1002 30-07-2020 11:25:00 21.9 C 56 % 12.73 C
1003 30-07-2020 11:30:00 22.1 C 55 % 12.64 C
1004 30-07-2020 11:35:00 22.3 C 55 % 12.83 C
1005 30-07-2020 11:40:00 22.4 C 53 % 12.36 C
1006 30-07-2020 11:45:00 22.4 C 54 % 12.64 C
1007 30-07-2020 11:50:00 22.7 C 52 % 12.34 C
1008 30-07-2020 11:55:00 22.7 C 51 % 12.05 C
1009 30-07-2020 12:00:00 22.9 C 52 % 12.53 C
1010 30-07-2020 12:05:00 23 C 51 % 12.32 C
1011 30-07-2020 12:10:00 23.1 C 51 % 12.42 C
1012 30-07-2020 12:15:00 23.3 C 52 % 12.9 C
1013 30-07-2020 12:20:00 23.5 C 49 % 12.17 C
1014 30-07-2020 12:25:00 23.6 C 49 % 12.27 C
1015 30-07-2020 12:30:00 23.6 C 49 % 12.27 C
1016 30-07-2020 12:35:00 23.7 C 49 % 12.36 C
1017 30-07-2020 12:40:00 23.8 C 48 % 12.14 C
1018 30-07-2020 12:45:00 23.9 C 47 % 11.91 C
1019 30-07-2020 12:50:00 23.9 C 46 % 11.58 C
1020 30-07-2020 12:55:00 24.2 C 46 % 11.85 C
1021 30-07-2020 13:00:00 24.4 C 44 % 11.36 C
1022 30-07-2020 13:05:00 24.4 C 45 % 11.7 C
1023 30-07-2020 13:10:00 24.7 C 44 % 11.63 C
1024 30-07-2020 13:15:00 24.7 C 44 % 11.63 C
1025 30-07-2020 13:20:00 24.8 C 44 % 11.72 C
Sensor: Nr:Datum:Temp:Feuchte:Taupunkt:
Aussen-T/F 1026 30-07-2020 13:25:00 24.9 C 43 % 11.47 C
1027 30-07-2020 13:30:00 25 C 42 % 11.2 C
1028 30-07-2020 13:35:00 25.1 C 42 % 11.29 C
1029 30-07-2020 13:40:00 25.1 C 42 % 11.29 C
1030 30-07-2020 13:45:00 25.2 C 42 % 11.38 C
1031 30-07-2020 13:50:00 25.3 C 40 % 10.74 C
1032 30-07-2020 13:55:00 25.5 C 40 % 10.91 C
1033 30-07-2020 14:00:00 25.6 C 40 % 11 C
1034 30-07-2020 14:05:00 25.8 C 40 % 11.18 C
1035 30-07-2020 14:10:00 26.1 C 39 % 11.07 C
1036 30-07-2020 14:15:00 26.2 C 39 % 11.16 C
1037 30-07-2020 14:20:00 26.3 C 39 % 11.25 C
1038 30-07-2020 14:25:00 26.5 C 39 % 11.42 C
1039 30-07-2020 14:30:00 26.6 C 37 % 10.72 C
1040 30-07-2020 14:35:00 26.7 C 37 % 10.81 C
1041 30-07-2020 14:40:00 26.7 C 37 % 10.81 C
1042 30-07-2020 14:45:00 26.7 C 37 % 10.81 C
1043 30-07-2020 14:50:00 26.9 C 38 % 11.39 C
1044 30-07-2020 14:55:00 27.1 C 38 % 11.56 C
1045 30-07-2020 15:00:00 27.2 C 36 % 10.84 C
1046 30-07-2020 15:05:00 27.3 C 37 % 11.34 C
1047 30-07-2020 15:10:00 27.6 C 39 % 12.4 C
1048 30-07-2020 15:15:00 27.8 C 34 % 10.51 C
1049 30-07-2020 15:20:00 27.7 C 35 % 10.85 C
1050 30-07-2020 15:25:00 27.9 C 35 % 11.03 C
Sensor: Nr:Datum:Temp:Feuchte:Taupunkt:
Aussen-T/F 1051 30-07-2020 15:30:00 28.1 C 34 % 10.77 C
1052 30-07-2020 15:35:00 28.1 C 35 % 11.2 C
1053 30-07-2020 15:40:00 28.4 C 35 % 11.47 C
1054 30-07-2020 15:45:00 28.9 C 33 % 11.02 C
1055 30-07-2020 15:50:00 29.4 C 34 % 11.9 C
1056 30-07-2020 15:55:00 29.5 C 32 % 11.07 C
1057 30-07-2020 16:00:00 29.7 C 32 % 11.25 C
1058 30-07-2020 16:05:00 30 C 30 % 10.54 C
1059 30-07-2020 16:10:00 29.8 C 30 % 10.37 C
1060 30-07-2020 16:15:00 29.8 C 30 % 10.37 C
1061 30-07-2020 16:20:00 29.9 C 30 % 10.45 C
1062 30-07-2020 16:25:00 29.8 C 29 % 9.86 C
1063 30-07-2020 16:30:00 29.6 C 29 % 9.69 C
1064 30-07-2020 16:35:00 29.7 C 30 % 10.28 C
1065 30-07-2020 16:40:00 30.1 C 28 % 9.59 C
1066 30-07-2020 16:45:00 30.4 C 28 % 9.85 C
1067 30-07-2020 16:50:00 30.6 C 28 % 10.02 C
1068 30-07-2020 16:55:00 30.7 C 28 % 10.1 C
1069 30-07-2020 17:00:00 30.5 C 28 % 9.93 C
1070 30-07-2020 17:05:00 30.6 C 29 % 10.54 C
1071 30-07-2020 17:10:00 30.6 C 27 % 9.48 C
1072 30-07-2020 17:15:00 30.6 C 28 % 10.02 C
1073 30-07-2020 17:20:00 30.8 C 27 % 9.65 C
1074 30-07-2020 17:25:00 30.9 C 27 % 9.73 C
1075 30-07-2020 17:30:00 31.2 C 28 % 10.53 C
Sensor: Nr:Datum:Temp:Feuchte:Taupunkt:
Aussen-T/F 1076 30-07-2020 17:35:00 31.4 C 27 % 10.16 C
1077 30-07-2020 17:40:00 31.7 C 27 % 10.41 C
1078 30-07-2020 17:45:00 31.9 C 26 % 10.02 C
1079 30-07-2020 17:50:00 31.9 C 26 % 10.02 C
1080 30-07-2020 17:55:00 31.8 C 26 % 9.93 C
1081 30-07-2020 18:00:00 31.7 C 26 % 9.85 C
1082 30-07-2020 18:05:00 31.7 C 26 % 9.85 C
1083 30-07-2020 18:10:00 31.8 C 26 % 9.93 C
1084 30-07-2020 18:15:00 31.8 C 26 % 9.93 C
1085 30-07-2020 18:20:00 31.7 C 26 % 9.85 C
1086 30-07-2020 18:25:00 31.7 C 26 % 9.85 C
1087 30-07-2020 18:30:00 31.8 C 26 % 9.93 C
1088 30-07-2020 18:35:00 31.8 C 26 % 9.93 C
1089 30-07-2020 18:40:00 31.8 C 26 % 9.93 C
1090 30-07-2020 18:45:00 31.8 C 26 % 9.93 C
1091 30-07-2020 18:50:00 31.7 C 26 % 9.85 C
1092 30-07-2020 18:55:00 31.6 C 27 % 10.33 C
1093 30-07-2020 19:00:00 31.4 C 26 % 9.59 C
1094 30-07-2020 19:05:00 31.4 C 26 % 9.59 C
1095 30-07-2020 19:10:00 31.3 C 27 % 10.07 C
1096 30-07-2020 19:15:00 30.9 C 27 % 9.73 C
1097 30-07-2020 19:20:00 30.7 C 27 % 9.56 C
1098 30-07-2020 19:25:00 30.6 C 27 % 9.48 C
1099 30-07-2020 19:30:00 30.3 C 28 % 9.76 C
1100 30-07-2020 19:35:00 30.2 C 28 % 9.68 C
Sensor: Nr:Datum:Temp:Feuchte:Taupunkt:
Aussen-T/F 1101 30-07-2020 19:40:00 29.9 C 29 % 9.94 C
1102 30-07-2020 19:45:00 29.7 C 29 % 9.77 C
1103 30-07-2020 19:50:00 29.6 C 29 % 9.69 C
1104 30-07-2020 19:55:00 29.6 C 30 % 10.19 C
1105 30-07-2020 20:00:00 29.6 C 30 % 10.19 C
1106 30-07-2020 20:05:00 29.4 C 30 % 10.02 C
1107 30-07-2020 20:10:00 29.4 C 30 % 10.02 C
1108 30-07-2020 20:15:00 29.3 C 31 % 10.43 C
1109 30-07-2020 20:20:00 29.2 C 31 % 10.34 C
1110 30-07-2020 20:25:00 29 C 32 % 10.64 C
1111 30-07-2020 20:30:00 28.8 C 33 % 10.93 C
1112 30-07-2020 20:35:00 28.6 C 34 % 11.21 C
1113 30-07-2020 20:40:00 28.3 C 37 % 12.22 C
1114 30-07-2020 20:45:00 28.2 C 38 % 12.54 C
1115 30-07-2020 20:50:00 27.8 C 38 % 12.18 C
1116 30-07-2020 20:55:00 27.4 C 39 % 12.22 C
1117 30-07-2020 21:00:00 26.9 C 39 % 11.78 C
1118 30-07-2020 21:05:00 26.3 C 41 % 12 C
1119 30-07-2020 21:10:00 25.7 C 42 % 11.83 C
1120 30-07-2020 21:15:00 25.1 C 43 % 11.65 C
1121 30-07-2020 21:20:00 24.7 C 44 % 11.63 C
1122 30-07-2020 21:25:00 24.3 C 45 % 11.61 C
1123 30-07-2020 21:30:00 23.9 C 45 % 11.25 C
1124 30-07-2020 21:35:00 23.6 C 46 % 11.31 C
1125 30-07-2020 21:40:00 23.4 C 46 % 11.13 C
Sensor: Nr:Datum:Temp:Feuchte:Taupunkt:
Aussen-T/F 1126 30-07-2020 21:45:00 23.2 C 47 % 11.27 C
1127 30-07-2020 21:50:00 22.9 C 48 % 11.31 C
1128 30-07-2020 21:55:00 22.8 C 48 % 11.22 C
1129 30-07-2020 22:00:00 22.6 C 48 % 11.04 C
1130 30-07-2020 22:05:00 22.4 C 49 % 11.17 C
1131 30-07-2020 22:10:00 22.3 C 49 % 11.08 C
1132 30-07-2020 22:15:00 22.1 C 49 % 10.89 C
1133 30-07-2020 22:20:00 22 C 50 % 11.11 C
1134 30-07-2020 22:25:00 21.9 C 49 % 10.71 C
1135 30-07-2020 22:30:00 21.8 C 50 % 10.92 C
1136 30-07-2020 22:35:00 21.6 C 51 % 11.04 C
1137 30-07-2020 22:40:00 21.4 C 50 % 10.55 C
1138 30-07-2020 22:45:00 21.3 C 51 % 10.76 C
1139 30-07-2020 22:50:00 21.2 C 51 % 10.67 C
1140 30-07-2020 22:55:00 21 C 53 % 11.06 C
1141 30-07-2020 23:00:00 20.9 C 53 % 10.97 C
1142 30-07-2020 23:05:00 20.8 C 54 % 11.16 C
1143 30-07-2020 23:10:00 20.6 C 55 % 11.25 C
1144 30-07-2020 23:15:00 20.3 C 55 % 10.97 C
1145 30-07-2020 23:20:00 20.1 C 56 % 11.06 C
1146 30-07-2020 23:25:00 19.8 C 57 % 11.04 C
1147 30-07-2020 23:30:00 19.6 C 57 % 10.86 C
1148 30-07-2020 23:35:00 19.4 C 59 % 11.19 C
1149 30-07-2020 23:40:00 19.3 C 59 % 11.09 C
1150 30-07-2020 23:45:00 19.1 C 60 % 11.16 C
Sensor: Nr:Datum:Temp:Feuchte:Taupunkt:
Aussen-T/F 1151 30-07-2020 23:50:00 18.9 C 60 % 10.97 C
1152 30-07-2020 23:55:00 18.8 C 61 % 11.13 C
1153 31-07-2020 00:00:00 18.7 C 61 % 11.03 C
1154 31-07-2020 00:05:00 18.6 C 60 % 10.69 C
1155 31-07-2020 00:10:00 18.4 C 61 % 10.75 C
1156 31-07-2020 00:15:00 18.3 C 62 % 10.9 C
1157 31-07-2020 00:20:00 18.2 C 61 % 10.56 C
1158 31-07-2020 00:25:00 18.1 C 62 % 10.71 C
1159 31-07-2020 00:30:00 18 C 63 % 10.86 C
1160 31-07-2020 00:35:00 17.9 C 62 % 10.52 C
1161 31-07-2020 00:40:00 17.8 C 63 % 10.67 C
1162 31-07-2020 00:45:00 17.7 C 64 % 10.81 C
1163 31-07-2020 00:50:00 17.6 C 63 % 10.48 C
1164 31-07-2020 00:55:00 17.4 C 64 % 10.53 C
1165 31-07-2020 01:00:00 17.3 C 65 % 10.66 C
1166 31-07-2020 01:05:00 17.2 C 65 % 10.57 C
1167 31-07-2020 01:10:00 17.2 C 65 % 10.57 C
1168 31-07-2020 01:15:00 17.1 C 65 % 10.47 C
1169 31-07-2020 01:20:00 17 C 65 % 10.38 C
1170 31-07-2020 01:25:00 16.9 C 66 % 10.51 C
1171 31-07-2020 01:30:00 16.8 C 67 % 10.64 C
1172 31-07-2020 01:35:00 16.8 C 66 % 10.42 C
1173 31-07-2020 01:40:00 16.7 C 67 % 10.55 C
1174 31-07-2020 01:45:00 16.6 C 67 % 10.45 C
1175 31-07-2020 01:50:00 16.4 C 67 % 10.26 C
Sensor: Nr:Datum:Temp:Feuchte:Taupunkt:
Aussen-T/F 1176 31-07-2020 01:55:00 16.3 C 68 % 10.39 C
1177 31-07-2020 02:00:00 16.2 C 69 % 10.51 C
1178 31-07-2020 02:05:00 16.1 C 68 % 10.2 C
1179 31-07-2020 02:10:00 16.1 C 69 % 10.42 C
1180 31-07-2020 02:15:00 15.9 C 70 % 10.44 C
1181 31-07-2020 02:20:00 15.9 C 70 % 10.44 C
1182 31-07-2020 02:25:00 15.8 C 71 % 10.56 C
1183 31-07-2020 02:30:00 15.7 C 71 % 10.46 C
1184 31-07-2020 02:35:00 15.6 C 71 % 10.37 C
1185 31-07-2020 02:40:00 15.6 C 71 % 10.37 C
1186 31-07-2020 02:45:00 15.5 C 71 % 10.27 C
1187 31-07-2020 02:50:00 15.4 C 72 % 10.38 C
1188 31-07-2020 02:55:00 15.4 C 72 % 10.38 C
1189 31-07-2020 03:00:00 15.3 C 73 % 10.49 C
1190 31-07-2020 03:05:00 15.3 C 73 % 10.49 C
1191 31-07-2020 03:10:00 15.2 C 73 % 10.4 C
1192 31-07-2020 03:15:00 15.1 C 73 % 10.3 C
1193 31-07-2020 03:20:00 15.1 C 74 % 10.5 C
1194 31-07-2020 03:25:00 15.1 C 74 % 10.5 C
1195 31-07-2020 03:30:00 15 C 74 % 10.41 C
1196 31-07-2020 03:35:00 14.9 C 75 % 10.51 C
1197 31-07-2020 03:40:00 14.8 C 75 % 10.42 C
1198 31-07-2020 03:45:00 14.7 C 75 % 10.32 C
1199 31-07-2020 03:50:00 14.7 C 76 % 10.52 C
1200 31-07-2020 03:55:00 14.7 C 76 % 10.52 C
Sensor: Nr:Datum:Temp:Feuchte:Taupunkt:
Aussen-T/F 1201 31-07-2020 04:00:00 14.6 C 76 % 10.42 C
1202 31-07-2020 04:05:00 14.5 C 77 % 10.52 C
1203 31-07-2020 04:10:00 14.4 C 77 % 10.42 C
1204 31-07-2020 04:15:00 14.3 C 78 % 10.52 C
1205 31-07-2020 04:20:00 14.3 C 78 % 10.52 C
1206 31-07-2020 04:25:00 14.2 C 78 % 10.42 C
1207 31-07-2020 04:30:00 14.1 C 78 % 10.33 C
1208 31-07-2020 04:35:00 14 C 79 % 10.42 C
1209 31-07-2020 04:40:00 13.9 C 79 % 10.32 C
1210 31-07-2020 04:45:00 13.9 C 80 % 10.51 C
1211 31-07-2020 04:50:00 13.8 C 80 % 10.41 C
1212 31-07-2020 04:55:00 13.8 C 80 % 10.41 C
1213 31-07-2020 05:00:00 13.7 C 81 % 10.5 C
1214 31-07-2020 05:05:00 13.7 C 81 % 10.5 C
1215 31-07-2020 05:10:00 13.7 C 81 % 10.5 C
1216 31-07-2020 05:15:00 13.7 C 81 % 10.5 C
1217 31-07-2020 05:20:00 13.6 C 81 % 10.4 C
1218 31-07-2020 05:25:00 13.6 C 81 % 10.4 C
1219 31-07-2020 05:30:00 13.6 C 81 % 10.4 C
1220 31-07-2020 05:35:00 13.5 C 81 % 10.31 C
1221 31-07-2020 05:40:00 13.4 C 82 % 10.39 C
1222 31-07-2020 05:45:00 13.4 C 82 % 10.39 C
1223 31-07-2020 05:50:00 13.3 C 82 % 10.3 C
1224 31-07-2020 05:55:00 13.3 C 82 % 10.3 C
1225 31-07-2020 06:00:00 13.3 C 83 % 10.48 C
Sensor: Nr:Datum:Temp:Feuchte:Taupunkt:
Aussen-T/F 1226 31-07-2020 06:05:00 13.2 C 83 % 10.38 C
1227 31-07-2020 06:10:00 13.2 C 83 % 10.38 C
1228 31-07-2020 06:15:00 13.2 C 83 % 10.38 C
1229 31-07-2020 06:20:00 13.2 C 84 % 10.56 C
1230 31-07-2020 06:25:00 13.2 C 84 % 10.56 C
1231 31-07-2020 06:30:00 13.2 C 84 % 10.56 C
1232 31-07-2020 06:35:00 13.2 C 84 % 10.56 C
1233 31-07-2020 06:40:00 13.2 C 84 % 10.56 C
1234 31-07-2020 06:45:00 13.3 C 84 % 10.66 C
1235 31-07-2020 06:50:00 13.3 C 84 % 10.66 C
1236 31-07-2020 06:55:00 13.3 C 84 % 10.66 C
1237 31-07-2020 07:00:00 13.3 C 84 % 10.66 C
1238 31-07-2020 07:05:00 13.3 C 85 % 10.83 C
1239 31-07-2020 07:10:00 13.3 C 84 % 10.66 C
1240 31-07-2020 07:15:00 13.4 C 85 % 10.93 C
1241 31-07-2020 07:20:00 13.4 C 85 % 10.93 C
1242 31-07-2020 07:25:00 13.4 C 85 % 10.93 C
1243 31-07-2020 07:30:00 13.4 C 85 % 10.93 C
1244 31-07-2020 07:35:00 13.5 C 85 % 11.03 C
1245 31-07-2020 07:40:00 13.6 C 85 % 11.13 C
1246 31-07-2020 07:45:00 13.6 C 85 % 11.13 C
1247 31-07-2020 07:50:00 13.6 C 85 % 11.13 C
1248 31-07-2020 07:55:00 13.7 C 85 % 11.23 C
1249 31-07-2020 08:00:00 13.8 C 85 % 11.32 C
1250 31-07-2020 08:05:00 13.8 C 85 % 11.32 C
Sensor: Nr:Datum:Temp:Feuchte:Taupunkt:
Aussen-T/F 1251 31-07-2020 08:10:00 13.9 C 84 % 11.24 C
1252 31-07-2020 08:15:00 14.1 C 84 % 11.44 C
1253 31-07-2020 08:20:00 14.2 C 85 % 11.72 C
1254 31-07-2020 08:25:00 14.3 C 85 % 11.81 C
1255 31-07-2020 08:30:00 14.4 C 84 % 11.73 C
1256 31-07-2020 08:35:00 14.6 C 84 % 11.93 C
1257 31-07-2020 08:40:00 14.7 C 84 % 12.03 C
1258 31-07-2020 08:45:00 14.8 C 84 % 12.12 C
1259 31-07-2020 08:50:00 15 C 84 % 12.32 C
1260 31-07-2020 08:55:00 15.1 C 84 % 12.42 C
1261 31-07-2020 09:00:00 15.3 C 83 % 12.43 C
1262 31-07-2020 09:05:00 15.4 C 83 % 12.53 C
1263 31-07-2020 09:10:00 15.6 C 83 % 12.72 C
1264 31-07-2020 09:15:00 15.8 C 82 % 12.74 C
1265 31-07-2020 09:20:00 15.9 C 81 % 12.65 C
1266 31-07-2020 09:25:00 16.1 C 81 % 12.84 C
1267 31-07-2020 09:30:00 16.3 C 80 % 12.85 C
1268 31-07-2020 09:35:00 16.6 C 79 % 12.95 C
1269 31-07-2020 09:40:00 16.9 C 78 % 13.04 C
1270 31-07-2020 09:45:00 17.2 C 77 % 13.14 C
1271 31-07-2020 09:50:00 17.6 C 75 % 13.12 C
1272 31-07-2020 09:55:00 17.9 C 74 % 13.2 C
1273 31-07-2020 10:00:00 18.6 C 71 % 13.24 C
1274 31-07-2020 10:05:00 19 C 70 % 13.41 C
1275 31-07-2020 10:10:00 19.3 C 69 % 13.47 C
Sensor: Nr:Datum:Temp:Feuchte:Taupunkt:
Aussen-T/F 1276 31-07-2020 10:15:00 19.7 C 67 % 13.4 C
1277 31-07-2020 10:20:00 19.9 C 66 % 13.36 C
1278 31-07-2020 10:25:00 20.3 C 63 % 13.03 C
1279 31-07-2020 10:30:00 20.7 C 62 % 13.16 C
1280 31-07-2020 10:35:00 21.6 C 58 % 12.99 C
1281 31-07-2020 10:40:00 22.2 C 56 % 13.01 C
1282 31-07-2020 10:45:00 22.6 C 55 % 13.11 C
1283 31-07-2020 10:50:00 22.9 C 55 % 13.38 C
1284 31-07-2020 10:55:00 23.1 C 56 % 13.85 C
1285 31-07-2020 11:00:00 23.3 C 54 % 13.47 C
1286 31-07-2020 11:05:00 23.4 C 55 % 13.85 C
1287 31-07-2020 11:10:00 23.6 C 53 % 13.46 C
1288 31-07-2020 11:15:00 23.8 C 52 % 13.36 C
1289 31-07-2020 11:20:00 24.3 C 50 % 13.22 C
1290 31-07-2020 11:25:00 24.8 C 49 % 13.36 C
1291 31-07-2020 11:30:00 25.3 C 49 % 13.82 C
1292 31-07-2020 11:35:00 26.1 C 43 % 12.55 C
1293 31-07-2020 11:40:00 26.8 C 42 % 12.82 C
1294 31-07-2020 11:45:00 27.4 C 41 % 12.99 C
1295 31-07-2020 11:50:00 27.9 C 38 % 12.27 C
1296 31-07-2020 11:55:00 28.2 C 37 % 12.13 C
1297 31-07-2020 12:00:00 28.5 C 36 % 11.98 C
1298 31-07-2020 12:05:00 28.7 C 36 % 12.16 C
1299 31-07-2020 12:10:00 29 C 35 % 11.99 C
1300 31-07-2020 12:15:00 29.1 C 36 % 12.51 C
Sensor: Nr:Datum:Temp:Feuchte:Taupunkt:
Aussen-T/F 1301 31-07-2020 12:20:00 29.2 C 36 % 12.6 C
1302 31-07-2020 12:25:00 29.3 C 35 % 12.26 C
1303 31-07-2020 12:30:00 29.5 C 34 % 11.99 C
1304 31-07-2020 12:35:00 29.7 C 34 % 12.17 C
1305 31-07-2020 12:40:00 29.8 C 33 % 11.8 C
1306 31-07-2020 12:45:00 29.9 C 34 % 12.34 C
1307 31-07-2020 12:50:00 30 C 35 % 12.87 C
1308 31-07-2020 12:55:00 30.1 C 34 % 12.51 C
1309 31-07-2020 13:00:00 30.2 C 34 % 12.6 C
1310 31-07-2020 13:05:00 30.3 C 34 % 12.69 C
1311 31-07-2020 13:10:00 30.4 C 34 % 12.78 C
1312 31-07-2020 13:15:00 30.5 C 34 % 12.86 C
1313 31-07-2020 13:20:00 30.6 C 33 % 12.5 C
1314 31-07-2020 13:25:00 30.7 C 33 % 12.58 C
1315 31-07-2020 13:30:00 30.9 C 33 % 12.76 C
1316 31-07-2020 13:35:00 31.1 C 34 % 13.39 C
1317 31-07-2020 13:40:00 31.2 C 33 % 13.02 C
1318 31-07-2020 13:45:00 31.3 C 32 % 12.63 C
1319 31-07-2020 13:50:00 31.3 C 31 % 12.15 C
1320 31-07-2020 13:55:00 31.4 C 32 % 12.72 C
1321 31-07-2020 14:00:00 31.7 C 32 % 12.98 C
1322 31-07-2020 14:05:00 31.9 C 32 % 13.15 C
1323 31-07-2020 14:10:00 32.1 C 32 % 13.33 C
1324 31-07-2020 14:15:00 32.1 C 31 % 12.84 C
1325 31-07-2020 14:20:00 32.2 C 31 % 12.93 C
Sensor: Nr:Datum:Temp:Feuchte:Taupunkt:
Aussen-T/F 1326 31-07-2020 14:25:00 32.3 C 31 % 13.01 C
1327 31-07-2020 14:30:00 32.3 C 32 % 13.5 C
1328 31-07-2020 14:35:00 32.3 C 31 % 13.01 C
1329 31-07-2020 14:40:00 32.3 C 30 % 12.51 C
1330 31-07-2020 14:45:00 32.4 C 31 % 13.1 C
1331 31-07-2020 14:50:00 32.7 C 29 % 12.34 C
1332 31-07-2020 14:55:00 32.8 C 29 % 12.43 C
1333 31-07-2020 15:00:00 33.1 C 28 % 12.15 C
1334 31-07-2020 15:05:00 33.2 C 28 % 12.23 C
1335 31-07-2020 15:10:00 33.4 C 29 % 12.94 C
1336 31-07-2020 15:15:00 33.7 C 28 % 12.66 C
1337 31-07-2020 15:20:00 33.9 C 30 % 13.89 C
1338 31-07-2020 15:25:00 34.2 C 29 % 13.62 C
1339 31-07-2020 15:30:00 34.3 C 26 % 12.04 C
1340 31-07-2020 15:35:00 34.7 C 26 % 12.38 C
1341 31-07-2020 15:40:00 35 C 25 % 12.03 C
1342 31-07-2020 15:45:00 35.2 C 26 % 12.8 C
1343 31-07-2020 15:50:00 35.4 C 24 % 11.75 C
1344 31-07-2020 15:55:00 35.5 C 26 % 13.05 C
1345 31-07-2020 16:00:00 35.8 C 24 % 12.08 C
1346 31-07-2020 16:05:00 36 C 24 % 12.25 C
1347 31-07-2020 16:10:00 36.3 C 26 % 13.72 C
1348 31-07-2020 16:15:00 36.6 C 24 % 12.75 C
1349 31-07-2020 16:20:00 36.7 C 24 % 12.83 C
1350 31-07-2020 16:25:00 36.7 C 23 % 12.18 C
Sensor: Nr:Datum:Temp:Feuchte:Taupunkt:
Aussen-T/F 1351 31-07-2020 16:30:00 36.7 C 24 % 12.83 C
1352 31-07-2020 16:35:00 36.7 C 23 % 12.18 C
1353 31-07-2020 16:40:00 36.8 C 24 % 12.92 C
1354 31-07-2020 16:45:00 37.1 C 24 % 13.17 C
1355 31-07-2020 16:50:00 37.4 C 25 % 14.04 C
1356 31-07-2020 16:55:00 37.4 C 23 % 12.76 C
1357 31-07-2020 17:00:00 37.4 C 23 % 12.76 C
1358 31-07-2020 17:05:00 37.6 C 24 % 13.58 C
1359 31-07-2020 17:10:00 37.6 C 22 % 12.25 C
1360 31-07-2020 17:15:00 37.5 C 21 % 11.47 C
1361 31-07-2020 17:20:00 37.4 C 22 % 12.09 C
1362 31-07-2020 17:25:00 37.1 C 23 % 12.52 C
1363 31-07-2020 17:30:00 37.1 C 25 % 13.79 C
1364 31-07-2020 17:35:00 37.2 C 24 % 13.25 C
1365 31-07-2020 17:40:00 37.4 C 24 % 13.42 C
1366 31-07-2020 17:45:00 37.7 C 22 % 12.34 C
1367 31-07-2020 17:50:00 37.8 C 23 % 13.1 C
1368 31-07-2020 17:55:00 37.9 C 21 % 11.79 C
1369 31-07-2020 18:00:00 37.6 C 21 % 11.55 C
1370 31-07-2020 18:05:00 37.3 C 22 % 12.01 C
1371 31-07-2020 18:10:00 37.4 C 22 % 12.09 C
1372 31-07-2020 18:15:00 37.7 C 22 % 12.34 C
1373 31-07-2020 18:20:00 37.7 C 21 % 11.63 C
1374 31-07-2020 18:25:00 37.9 C 21 % 11.79 C
1375 31-07-2020 18:30:00 37.8 C 22 % 12.42 C
Sensor: Nr:Datum:Temp:Feuchte:Taupunkt:
Aussen-T/F 1376 31-07-2020 18:35:00 37.5 C 22 % 12.17 C
1377 31-07-2020 18:40:00 37.6 C 22 % 12.25 C
1378 31-07-2020 18:45:00 37.4 C 21 % 11.38 C
1379 31-07-2020 18:50:00 37.1 C 22 % 11.84 C
1380 31-07-2020 18:55:00 37.2 C 21 % 11.22 C
1381 31-07-2020 19:00:00 37.1 C 22 % 11.84 C
1382 31-07-2020 19:05:00 37.1 C 22 % 11.84 C
1383 31-07-2020 19:10:00 37 C 22 % 11.76 C
1384 31-07-2020 19:15:00 36.9 C 22 % 11.68 C
1385 31-07-2020 19:20:00 36.5 C 26 % 13.89 C
1386 31-07-2020 19:25:00 36.2 C 23 % 11.77 C
1387 31-07-2020 19:30:00 35.8 C 25 % 12.7 C
1388 31-07-2020 19:35:00 35.6 C 24 % 11.92 C
1389 31-07-2020 19:40:00 35.4 C 24 % 11.75 C
1390 31-07-2020 19:45:00 35.3 C 25 % 12.28 C
1391 31-07-2020 19:50:00 35.2 C 25 % 12.2 C
1392 31-07-2020 19:55:00 35.2 C 28 % 13.93 C
1393 31-07-2020 20:00:00 35 C 27 % 13.21 C
1394 31-07-2020 20:05:00 34.9 C 29 % 14.22 C
1395 31-07-2020 20:10:00 34.7 C 28 % 13.51 C
1396 31-07-2020 20:15:00 34.5 C 29 % 13.88 C
1397 31-07-2020 20:20:00 34.3 C 30 % 14.23 C
1398 31-07-2020 20:25:00 33.9 C 30 % 13.89 C
1399 31-07-2020 20:30:00 33.6 C 31 % 14.13 C
1400 31-07-2020 20:35:00 33.1 C 32 % 14.19 C
Sensor: Nr:Datum:Temp:Feuchte:Taupunkt:
Aussen-T/F 1401 31-07-2020 20:40:00 32.6 C 33 % 14.23 C
1402 31-07-2020 20:45:00 32 C 34 % 14.17 C
1403 31-07-2020 20:50:00 31.3 C 35 % 14.01 C
1404 31-07-2020 20:55:00 30.7 C 38 % 14.75 C
1405 31-07-2020 21:00:00 29.9 C 38 % 14.04 C
1406 31-07-2020 21:05:00 29.2 C 40 % 14.21 C
1407 31-07-2020 21:10:00 28.4 C 41 % 13.88 C
1408 31-07-2020 21:15:00 27.8 C 42 % 13.71 C
1409 31-07-2020 21:20:00 27.3 C 44 % 13.98 C
1410 31-07-2020 21:25:00 26.8 C 44 % 13.53 C
1411 31-07-2020 21:30:00 26.5 C 45 % 13.6 C
1412 31-07-2020 21:35:00 26.3 C 45 % 13.42 C
1413 31-07-2020 21:40:00 26.1 C 45 % 13.24 C
1414 31-07-2020 21:45:00 25.9 C 45 % 13.06 C
1415 31-07-2020 21:50:00 25.8 C 45 % 12.97 C
1416 31-07-2020 21:55:00 25.7 C 45 % 12.88 C
1417 31-07-2020 22:00:00 25.7 C 46 % 13.22 C
1418 31-07-2020 22:05:00 25.6 C 45 % 12.79 C
1419 31-07-2020 22:10:00 25.4 C 47 % 13.27 C
1420 31-07-2020 22:15:00 25.2 C 47 % 13.09 C
1421 31-07-2020 22:20:00 25 C 47 % 12.91 C
1422 31-07-2020 22:25:00 24.8 C 48 % 13.05 C
1423 31-07-2020 22:30:00 24.7 C 49 % 13.27 C
1424 31-07-2020 22:35:00 24.6 C 49 % 13.18 C
1425 31-07-2020 22:40:00 24.4 C 50 % 13.31 C
Sensor: Nr:Datum:Temp:Feuchte:Taupunkt:
Aussen-T/F 1426 31-07-2020 22:45:00 24.2 C 51 % 13.43 C
1427 31-07-2020 22:50:00 23.9 C 51 % 13.15 C
1428 31-07-2020 22:55:00 23.8 C 52 % 13.36 C
1429 31-07-2020 23:00:00 23.6 C 52 % 13.17 C
1430 31-07-2020 23:05:00 23.5 C 53 % 13.37 C
1431 31-07-2020 23:10:00 23.3 C 53 % 13.19 C
1432 31-07-2020 23:15:00 23.2 C 52 % 12.8 C
1433 31-07-2020 23:20:00 23.1 C 54 % 13.29 C
1434 31-07-2020 23:25:00 23 C 54 % 13.2 C
1435 31-07-2020 23:30:00 22.9 C 55 % 13.38 C
1436 31-07-2020 23:35:00 22.8 C 56 % 13.57 C
1437 31-07-2020 23:40:00 22.6 C 56 % 13.38 C
1438 31-07-2020 23:45:00 22.5 C 56 % 13.29 C
1439 31-07-2020 23:50:00 22.3 C 57 % 13.37 C
1440 31-07-2020 23:55:00 22.1 C 58 % 13.45 C
1441 01-08-2020 00:00:00 21.9 C 58 % 13.27 C
1442 01-08-2020 00:05:00 21.7 C 60 % 13.6 C
1443 01-08-2020 00:10:00 21.6 C 59 % 13.25 C
1444 01-08-2020 00:15:00 21.3 C 59 % 12.97 C
1445 01-08-2020 00:20:00 21.2 C 61 % 13.38 C
1446 01-08-2020 00:25:00 21.1 C 61 % 13.29 C
1447 01-08-2020 00:30:00 20.9 C 62 % 13.35 C
1448 01-08-2020 00:35:00 20.8 C 62 % 13.26 C
1449 01-08-2020 00:40:00 20.7 C 63 % 13.41 C
1450 01-08-2020 00:45:00 20.5 C 63 % 13.22 C
Sensor: Nr:Datum:Temp:Feuchte:Taupunkt:
Aussen-T/F 1451 01-08-2020 00:50:00 20.4 C 64 % 13.37 C
1452 01-08-2020 00:55:00 20.3 C 64 % 13.27 C
1453 01-08-2020 01:00:00 20.1 C 65 % 13.32 C
1454 01-08-2020 01:05:00 20 C 65 % 13.22 C
1455 01-08-2020 01:10:00 19.9 C 66 % 13.36 C
1456 01-08-2020 01:15:00 19.8 C 67 % 13.5 C
1457 01-08-2020 01:20:00 19.8 C 67 % 13.5 C
1458 01-08-2020 01:25:00 19.7 C 69 % 13.86 C
1459 01-08-2020 01:30:00 19.6 C 69 % 13.76 C
1460 01-08-2020 01:35:00 19.6 C 68 % 13.54 C
1461 01-08-2020 01:40:00 19.4 C 68 % 13.34 C
1462 01-08-2020 01:45:00 19.4 C 69 % 13.57 C
1463 01-08-2020 01:50:00 19.4 C 70 % 13.79 C
1464 01-08-2020 01:55:00 19.3 C 70 % 13.69 C
1465 01-08-2020 02:00:00 19.3 C 70 % 13.69 C
1466 01-08-2020 02:05:00 19.2 C 69 % 13.38 C
1467 01-08-2020 02:10:00 19.2 C 70 % 13.6 C
1468 01-08-2020 02:15:00 19.1 C 70 % 13.5 C
1469 01-08-2020 02:20:00 19 C 70 % 13.41 C
1470 01-08-2020 02:25:00 18.9 C 70 % 13.31 C
1471 01-08-2020 02:30:00 18.9 C 70 % 13.31 C
1472 01-08-2020 02:35:00 18.9 C 70 % 13.31 C
1473 01-08-2020 02:40:00 18.8 C 71 % 13.43 C
1474 01-08-2020 02:45:00 18.7 C 71 % 13.34 C
1475 01-08-2020 02:50:00 18.7 C 72 % 13.55 C
Sensor: Nr:Datum:Temp:Feuchte:Taupunkt:
Aussen-T/F 1476 01-08-2020 02:55:00 18.7 C 72 % 13.55 C
1477 01-08-2020 03:00:00 18.7 C 72 % 13.55 C
1478 01-08-2020 03:05:00 18.7 C 72 % 13.55 C
1479 01-08-2020 03:10:00 18.6 C 72 % 13.46 C
1480 01-08-2020 03:15:00 18.5 C 72 % 13.36 C
1481 01-08-2020 03:20:00 18.4 C 72 % 13.26 C
1482 01-08-2020 03:25:00 18.3 C 72 % 13.17 C
1483 01-08-2020 03:30:00 18.3 C 72 % 13.17 C
1484 01-08-2020 03:35:00 18.3 C 73 % 13.38 C
1485 01-08-2020 03:40:00 18.2 C 73 % 13.28 C
1486 01-08-2020 03:45:00 18.1 C 73 % 13.19 C
1487 01-08-2020 03:50:00 17.9 C 74 % 13.2 C
1488 01-08-2020 03:55:00 17.8 C 74 % 13.11 C
1489 01-08-2020 04:00:00 17.8 C 74 % 13.11 C
1490 01-08-2020 04:05:00 17.7 C 75 % 13.22 C
1491 01-08-2020 04:10:00 17.6 C 75 % 13.12 C
1492 01-08-2020 04:15:00 17.6 C 76 % 13.32 C
1493 01-08-2020 04:20:00 17.5 C 76 % 13.23 C
1494 01-08-2020 04:25:00 17.4 C 76 % 13.13 C
1495 01-08-2020 04:30:00 17.4 C 76 % 13.13 C
1496 01-08-2020 04:35:00 17.5 C 76 % 13.23 C
1497 01-08-2020 04:40:00 17.6 C 76 % 13.32 C
1498 01-08-2020 04:45:00 17.8 C 77 % 13.72 C
1499 01-08-2020 04:50:00 17.9 C 76 % 13.61 C
1500 01-08-2020 04:55:00 18.1 C 75 % 13.6 C
Sensor: Nr:Datum:Temp:Feuchte:Taupunkt:
Aussen-T/F 1501 01-08-2020 05:00:00 18.2 C 75 % 13.7 C
1502 01-08-2020 05:05:00 18.2 C 75 % 13.7 C
1503 01-08-2020 05:10:00 18.2 C 75 % 13.7 C
1504 01-08-2020 05:15:00 18.2 C 75 % 13.7 C
1505 01-08-2020 05:20:00 18.1 C 75 % 13.6 C
1506 01-08-2020 05:25:00 18.1 C 76 % 13.81 C
1507 01-08-2020 05:30:00 17.9 C 76 % 13.61 C
1508 01-08-2020 05:35:00 17.8 C 76 % 13.52 C
1509 01-08-2020 05:40:00 17.8 C 77 % 13.72 C
1510 01-08-2020 05:45:00 17.8 C 77 % 13.72 C
1511 01-08-2020 05:50:00 17.9 C 77 % 13.81 C
1512 01-08-2020 05:55:00 18 C 76 % 13.71 C
1513 01-08-2020 06:00:00 18.2 C 75 % 13.7 C
1514 01-08-2020 06:05:00 18.3 C 75 % 13.79 C
1515 01-08-2020 06:10:00 18.4 C 75 % 13.89 C
1516 01-08-2020 06:15:00 18.3 C 75 % 13.79 C
1517 01-08-2020 06:20:00 18.3 C 75 % 13.79 C
1518 01-08-2020 06:25:00 18.2 C 75 % 13.7 C
1519 01-08-2020 06:30:00 18.1 C 75 % 13.6 C
1520 01-08-2020 06:35:00 18.1 C 76 % 13.81 C
1521 01-08-2020 06:40:00 18.1 C 76 % 13.81 C
1522 01-08-2020 06:45:00 18.1 C 76 % 13.81 C
1523 01-08-2020 06:50:00 18 C 76 % 13.71 C
1524 01-08-2020 06:55:00 17.9 C 77 % 13.81 C
1525 01-08-2020 07:00:00 17.9 C 77 % 13.81 C
Sensor: Nr:Datum:Temp:Feuchte:Taupunkt:
Aussen-T/F 1526 01-08-2020 07:05:00 17.9 C 78 % 14.01 C
1527 01-08-2020 07:10:00 17.8 C 78 % 13.91 C
1528 01-08-2020 07:15:00 17.8 C 78 % 13.91 C
1529 01-08-2020 07:20:00 17.9 C 79 % 14.21 C
1530 01-08-2020 07:25:00 17.9 C 79 % 14.21 C
1531 01-08-2020 07:30:00 18 C 80 % 14.5 C
1532 01-08-2020 07:35:00 18.1 C 79 % 14.4 C
1533 01-08-2020 07:40:00 18.2 C 80 % 14.69 C
1534 01-08-2020 07:45:00 18.3 C 79 % 14.6 C
1535 01-08-2020 07:50:00 18.4 C 78 % 14.5 C
1536 01-08-2020 07:55:00 18.6 C 79 % 14.89 C
1537 01-08-2020 08:00:00 18.8 C 77 % 14.68 C
1538 01-08-2020 08:05:00 19.1 C 77 % 14.97 C
1539 01-08-2020 08:10:00 19.6 C 78 % 15.66 C
1540 01-08-2020 08:15:00 20.1 C 73 % 15.11 C
1541 01-08-2020 08:20:00 20.6 C 70 % 14.94 C
1542 01-08-2020 08:25:00 21.4 C 65 % 14.55 C
1543 01-08-2020 08:30:00 22 C 64 % 14.88 C
1544 01-08-2020 08:35:00 22.2 C 64 % 15.07 C
1545 01-08-2020 08:40:00 21.9 C 70 % 16.18 C
1546 01-08-2020 08:45:00 21.4 C 74 % 16.57 C
1547 01-08-2020 08:50:00 21 C 78 % 17.02 C
1548 01-08-2020 08:55:00 20.6 C 80 % 17.03 C
1549 01-08-2020 09:00:00 20.3 C 82 % 17.13 C
1550 01-08-2020 09:05:00 20.1 C 84 % 17.31 C
Sensor: Nr:Datum:Temp:Feuchte:Taupunkt:
Aussen-T/F 1551 01-08-2020 09:10:00 19.9 C 85 % 17.3 C
1552 01-08-2020 09:15:00 19.8 C 86 % 17.39 C
1553 01-08-2020 09:20:00 19.7 C 85 % 17.11 C
1554 01-08-2020 09:25:00 19.7 C 86 % 17.29 C
1555 01-08-2020 09:30:00 19.7 C 85 % 17.11 C
1556 01-08-2020 09:35:00 19.8 C 85 % 17.21 C
1557 01-08-2020 09:40:00 19.9 C 87 % 17.67 C
1558 01-08-2020 09:45:00 19.9 C 88 % 17.85 C
1559 01-08-2020 09:50:00 19.9 C 88 % 17.85 C
1560 01-08-2020 09:55:00 19.8 C 89 % 17.93 C
1561 01-08-2020 10:00:00 19.8 C 90 % 18.11 C
1562 01-08-2020 10:05:00 19.8 C 90 % 18.11 C
1563 01-08-2020 10:10:00 19.8 C 91 % 18.29 C
1564 01-08-2020 10:15:00 19.8 C 92 % 18.46 C
1565 01-08-2020 10:20:00 19.9 C 92 % 18.56 C
1566 01-08-2020 10:25:00 19.9 C 92 % 18.56 C
1567 01-08-2020 10:30:00 19.9 C 93 % 18.73 C
1568 01-08-2020 10:35:00 19.9 C 92 % 18.56 C
1569 01-08-2020 10:40:00 19.8 C 92 % 18.46 C
1570 01-08-2020 10:45:00 19.8 C 93 % 18.63 C
1571 01-08-2020 10:50:00 19.8 C 93 % 18.63 C
1572 01-08-2020 10:55:00 19.8 C 93 % 18.63 C
1573 01-08-2020 11:00:00 19.9 C 93 % 18.73 C
1574 01-08-2020 11:05:00 19.9 C 94 % 18.91 C
1575 01-08-2020 11:10:00 20 C 94 % 19 C
Sensor: Nr:Datum:Temp:Feuchte:Taupunkt:
Aussen-T/F 1576 01-08-2020 11:15:00 20.1 C 94 % 19.1 C
1577 01-08-2020 11:20:00 20.1 C 94 % 19.1 C
1578 01-08-2020 11:25:00 20.2 C 94 % 19.2 C
1579 01-08-2020 11:30:00 20.2 C 94 % 19.2 C
1580 01-08-2020 11:35:00 20.3 C 94 % 19.3 C
1581 01-08-2020 11:40:00 20.4 C 95 % 19.57 C
1582 01-08-2020 11:45:00 20.5 C 95 % 19.67 C
1583 01-08-2020 11:50:00 20.6 C 95 % 19.77 C
1584 01-08-2020 11:55:00 20.7 C 95 % 19.87 C
1585 01-08-2020 12:00:00 20.7 C 95 % 19.87 C
1586 01-08-2020 12:05:00 20.9 C 95 % 20.07 C
1587 01-08-2020 12:10:00 21.1 C 95 % 20.27 C
1588 01-08-2020 12:15:00 21 C 94 % 20 C
1589 01-08-2020 12:20:00 21 C 94 % 20 C
1590 01-08-2020 12:25:00 20.9 C 94 % 19.9 C
1591 01-08-2020 12:30:00 20.9 C 94 % 19.9 C
1592 01-08-2020 12:35:00 21.1 C 94 % 20.1 C
1593 01-08-2020 12:40:00 21.1 C 94 % 20.1 C
1594 01-08-2020 12:45:00 21.1 C 93 % 19.92 C
1595 01-08-2020 12:50:00 21.1 C 93 % 19.92 C
1596 01-08-2020 12:55:00 21.2 C 94 % 20.19 C
1597 01-08-2020 13:00:00 21.2 C 94 % 20.19 C
1598 01-08-2020 13:05:00 21.3 C 93 % 20.12 C
1599 01-08-2020 13:10:00 21.4 C 93 % 20.22 C
1600 01-08-2020 13:15:00 21.4 C 93 % 20.22 C
Sensor: Nr:Datum:Temp:Feuchte:Taupunkt:
Aussen-T/F 1601 01-08-2020 13:20:00 21.5 C 93 % 20.32 C
1602 01-08-2020 13:25:00 21.6 C 93 % 20.42 C
1603 01-08-2020 13:30:00 21.7 C 93 % 20.52 C
1604 01-08-2020 13:35:00 21.9 C 93 % 20.72 C
1605 01-08-2020 13:40:00 22.2 C 92 % 20.84 C
1606 01-08-2020 13:45:00 22.3 C 92 % 20.94 C
1607 01-08-2020 13:50:00 22.5 C 91 % 20.96 C
1608 01-08-2020 13:55:00 22.7 C 90 % 20.97 C
1609 01-08-2020 14:00:00 22.9 C 90 % 21.17 C
1610 01-08-2020 14:05:00 23.1 C 90 % 21.37 C
1611 01-08-2020 14:10:00 23.2 C 88 % 21.1 C
1612 01-08-2020 14:15:00 23.3 C 86 % 20.82 C
1613 01-08-2020 14:20:00 23.6 C 86 % 21.12 C
1614 01-08-2020 14:25:00 23.8 C 87 % 21.5 C
1615 01-08-2020 14:30:00 23.8 C 83 % 20.74 C
1616 01-08-2020 14:35:00 24 C 84 % 21.13 C
1617 01-08-2020 14:40:00 24.1 C 84 % 21.22 C
1618 01-08-2020 14:45:00 24.2 C 84 % 21.32 C
1619 01-08-2020 14:50:00 24.1 C 83 % 21.03 C
1620 01-08-2020 14:55:00 24.3 C 85 % 21.61 C
1621 01-08-2020 15:00:00 24.4 C 84 % 21.52 C
1622 01-08-2020 15:05:00 24.6 C 84 % 21.71 C
1623 01-08-2020 15:10:00 24.8 C 83 % 21.71 C
1624 01-08-2020 15:15:00 24.9 C 82 % 21.61 C
1625 01-08-2020 15:20:00 25 C 81 % 21.51 C
Sensor: Nr:Datum:Temp:Feuchte:Taupunkt:
Aussen-T/F 1626 01-08-2020 15:25:00 25.3 C 82 % 22 C
1627 01-08-2020 15:30:00 25.7 C 81 % 22.19 C
1628 01-08-2020 15:35:00 26.1 C 79 % 22.17 C
1629 01-08-2020 15:40:00 26.5 C 78 % 22.35 C
1630 01-08-2020 15:45:00 27 C 77 % 22.62 C
1631 01-08-2020 15:50:00 27.4 C 74 % 22.35 C
1632 01-08-2020 15:55:00 27.8 C 73 % 22.51 C
1633 01-08-2020 16:00:00 28.1 C 71 % 22.34 C
1634 01-08-2020 16:05:00 28.5 C 70 % 22.49 C
1635 01-08-2020 16:10:00 28.9 C 69 % 22.63 C
1636 01-08-2020 16:15:00 29.2 C 67 % 22.44 C
1637 01-08-2020 16:20:00 29.4 C 63 % 21.61 C
1638 01-08-2020 16:25:00 29.7 C 61 % 21.37 C
1639 01-08-2020 16:30:00 29.8 C 60 % 21.19 C
1640 01-08-2020 16:35:00 30 C 61 % 21.65 C
1641 01-08-2020 16:40:00 30.4 C 58 % 21.2 C
1642 01-08-2020 16:45:00 30.7 C 57 % 21.2 C
1643 01-08-2020 16:50:00 30.9 C 55 % 20.8 C
1644 01-08-2020 16:55:00 31 C 54 % 20.6 C
1645 01-08-2020 17:00:00 31.1 C 54 % 20.69 C
1646 01-08-2020 17:05:00 31.3 C 54 % 20.87 C
1647 01-08-2020 17:10:00 31.4 C 53 % 20.66 C
1648 01-08-2020 17:15:00 31.7 C 53 % 20.94 C
1649 01-08-2020 17:20:00 31.9 C 53 % 21.12 C
1650 01-08-2020 17:25:00 32.1 C 52 % 21 C
Sensor: Nr:Datum:Temp:Feuchte:Taupunkt:
Aussen-T/F 1651 01-08-2020 17:30:00 32.2 C 51 % 20.77 C
1652 01-08-2020 17:35:00 32 C 51 % 20.59 C
1653 01-08-2020 17:40:00 32.1 C 52 % 21 C
1654 01-08-2020 17:45:00 32.3 C 49 % 20.21 C
1655 01-08-2020 17:50:00 32.4 C 49 % 20.31 C
1656 01-08-2020 17:55:00 31.9 C 50 % 20.18 C
1657 01-08-2020 18:00:00 31.7 C 50 % 19.99 C
1658 01-08-2020 18:05:00 31.5 C 52 % 20.44 C
1659 01-08-2020 18:10:00 31.4 C 51 % 20.04 C
1660 01-08-2020 18:15:00 31.4 C 61 % 22.96 C
1661 01-08-2020 18:20:00 31.3 C 52 % 20.26 C
1662 01-08-2020 18:25:00 31.2 C 52 % 20.17 C
1663 01-08-2020 18:30:00 31.1 C 51 % 19.76 C
1664 01-08-2020 18:35:00 30.8 C 57 % 21.29 C
1665 01-08-2020 18:40:00 30.6 C 54 % 20.23 C
1666 01-08-2020 18:45:00 30.3 C 53 % 19.65 C
1667 01-08-2020 18:50:00 29.9 C 60 % 21.29 C
1668 01-08-2020 18:55:00 29.6 C 61 % 21.28 C
1669 01-08-2020 19:00:00 29.1 C 64 % 21.59 C
1670 01-08-2020 19:05:00 28.6 C 65 % 21.37 C
1671 01-08-2020 19:10:00 28.1 C 66 % 21.15 C
1672 01-08-2020 19:15:00 27.6 C 67 % 20.92 C
1673 01-08-2020 19:20:00 27.2 C 67 % 20.54 C
1674 01-08-2020 19:25:00 26.9 C 68 % 20.49 C
1675 01-08-2020 19:30:00 26.7 C 66 % 19.82 C
Sensor: Nr:Datum:Temp:Feuchte:Taupunkt:
Aussen-T/F 1676 01-08-2020 19:35:00 27 C 65 % 19.86 C
1677 01-08-2020 19:40:00 27.4 C 64 % 19.98 C
1678 01-08-2020 19:45:00 27.6 C 65 % 20.42 C
1679 01-08-2020 19:50:00 27.6 C 68 % 21.16 C
1680 01-08-2020 19:55:00 27.4 C 67 % 20.73 C
1681 01-08-2020 20:00:00 25.7 C 71 % 20.04 C
1682 01-08-2020 20:05:00 23.7 C 78 % 19.63 C
1683 01-08-2020 20:10:00 22.6 C 83 % 19.56 C
1684 01-08-2020 20:15:00 21.9 C 86 % 19.45 C
1685 01-08-2020 20:20:00 21.6 C 88 % 19.53 C
1686 01-08-2020 20:25:00 21.4 C 91 % 19.87 C
1687 01-08-2020 20:30:00 21.4 C 92 % 20.05 C
1688 01-08-2020 20:35:00 21.5 C 93 % 20.32 C
1689 01-08-2020 20:40:00 21.5 C 94 % 20.49 C
1690 01-08-2020 20:45:00 21.6 C 94 % 20.59 C
1691 01-08-2020 20:50:00 21.5 C 94 % 20.49 C
1692 01-08-2020 20:55:00 21.4 C 94 % 20.39 C
1693 01-08-2020 21:00:00 21.4 C 94 % 20.39 C
1694 01-08-2020 21:05:00 21.3 C 94 % 20.29 C
1695 01-08-2020 21:10:00 21.3 C 94 % 20.29 C
1696 01-08-2020 21:15:00 21.2 C 95 % 20.37 C
1697 01-08-2020 21:20:00 21.1 C 94 % 20.1 C
1698 01-08-2020 21:25:00 21.1 C 95 % 20.27 C
1699 01-08-2020 21:30:00 21.1 C 95 % 20.27 C
1700 01-08-2020 21:35:00 21.1 C 95 % 20.27 C
Sensor: Nr:Datum:Temp:Feuchte:Taupunkt:
Aussen-T/F 1701 01-08-2020 21:40:00 21 C 95 % 20.17 C
1702 01-08-2020 21:45:00 20.9 C 95 % 20.07 C
1703 01-08-2020 21:50:00 20.9 C 95 % 20.07 C
1704 01-08-2020 21:55:00 20.9 C 95 % 20.07 C
1705 01-08-2020 22:00:00 20.9 C 96 % 20.24 C
1706 01-08-2020 22:05:00 20.9 C 96 % 20.24 C
1707 01-08-2020 22:10:00 20.9 C 96 % 20.24 C
1708 01-08-2020 22:15:00 20.9 C 96 % 20.24 C
1709 01-08-2020 22:20:00 20.9 C 96 % 20.24 C
1710 01-08-2020 22:25:00 20.9 C 96 % 20.24 C
1711 01-08-2020 22:30:00 20.9 C 96 % 20.24 C
1712 01-08-2020 22:35:00 20.9 C 96 % 20.24 C
1713 01-08-2020 22:40:00 20.9 C 96 % 20.24 C
1714 01-08-2020 22:45:00 20.9 C 96 % 20.24 C
1715 01-08-2020 22:50:00 20.9 C 96 % 20.24 C
1716 01-08-2020 22:55:00 20.9 C 96 % 20.24 C
1717 01-08-2020 23:00:00 20.8 C 96 % 20.14 C
1718 01-08-2020 23:05:00 20.8 C 96 % 20.14 C
1719 01-08-2020 23:10:00 20.8 C 96 % 20.14 C
1720 01-08-2020 23:15:00 20.7 C 96 % 20.04 C
1721 01-08-2020 23:20:00 20.6 C 96 % 19.94 C
1722 01-08-2020 23:25:00 20.6 C 96 % 19.94 C
1723 01-08-2020 23:30:00 20.4 C 96 % 19.74 C
1724 01-08-2020 23:35:00 20.4 C 96 % 19.74 C
1725 01-08-2020 23:40:00 20.4 C 96 % 19.74 C
Sensor: Nr:Datum:Temp:Feuchte:Taupunkt:
Aussen-T/F 1726 01-08-2020 23:45:00 20.3 C 96 % 19.64 C
1727 01-08-2020 23:50:00 20.3 C 96 % 19.64 C
1728 01-08-2020 23:55:00 20.2 C 96 % 19.54 C
1729 02-08-2020 00:00:00 20.2 C 96 % 19.54 C
1730 02-08-2020 00:05:00 20.2 C 96 % 19.54 C
1731 02-08-2020 00:10:00 20.1 C 96 % 19.44 C
1732 02-08-2020 00:15:00 20.1 C 96 % 19.44 C
1733 02-08-2020 00:20:00 20.1 C 96 % 19.44 C
1734 02-08-2020 00:25:00 20.1 C 96 % 19.44 C
1735 02-08-2020 00:30:00 20.1 C 96 % 19.44 C
1736 02-08-2020 00:35:00 20.1 C 96 % 19.44 C
1737 02-08-2020 00:40:00 20.1 C 96 % 19.44 C
1738 02-08-2020 00:45:00 20.1 C 96 % 19.44 C
1739 02-08-2020 00:50:00 20.1 C 96 % 19.44 C
1740 02-08-2020 00:55:00 20.1 C 96 % 19.44 C
1741 02-08-2020 01:00:00 20.1 C 97 % 19.61 C
1742 02-08-2020 01:05:00 20.1 C 97 % 19.61 C
1743 02-08-2020 01:10:00 20.1 C 97 % 19.61 C
1744 02-08-2020 01:15:00 20.1 C 97 % 19.61 C
1745 02-08-2020 01:20:00 20.1 C 97 % 19.61 C
1746 02-08-2020 01:25:00 20.1 C 97 % 19.61 C
1747 02-08-2020 01:30:00 20.1 C 97 % 19.61 C
1748 02-08-2020 01:35:00 20 C 96 % 19.34 C
1749 02-08-2020 01:40:00 20 C 96 % 19.34 C
1750 02-08-2020 01:45:00 19.9 C 96 % 19.24 C
Sensor: Nr:Datum:Temp:Feuchte:Taupunkt:
Aussen-T/F 1751 02-08-2020 01:50:00 19.8 C 96 % 19.14 C
1752 02-08-2020 01:55:00 19.8 C 96 % 19.14 C
1753 02-08-2020 02:00:00 19.7 C 96 % 19.04 C
1754 02-08-2020 02:05:00 19.7 C 96 % 19.04 C
1755 02-08-2020 02:10:00 19.6 C 96 % 18.94 C
1756 02-08-2020 02:15:00 19.6 C 96 % 18.94 C
1757 02-08-2020 02:20:00 19.4 C 96 % 18.75 C
1758 02-08-2020 02:25:00 19.4 C 96 % 18.75 C
1759 02-08-2020 02:30:00 19.4 C 96 % 18.75 C
1760 02-08-2020 02:35:00 19.3 C 96 % 18.65 C
1761 02-08-2020 02:40:00 19.3 C 96 % 18.65 C
1762 02-08-2020 02:45:00 19.3 C 96 % 18.65 C
1763 02-08-2020 02:50:00 19.2 C 96 % 18.55 C
1764 02-08-2020 02:55:00 19.1 C 96 % 18.45 C
1765 02-08-2020 03:00:00 19.2 C 96 % 18.55 C
1766 02-08-2020 03:05:00 19.1 C 96 % 18.45 C
1767 02-08-2020 03:10:00 19.1 C 96 % 18.45 C
1768 02-08-2020 03:15:00 19.1 C 96 % 18.45 C
1769 02-08-2020 03:20:00 19 C 96 % 18.35 C
1770 02-08-2020 03:25:00 18.9 C 96 % 18.25 C
1771 02-08-2020 03:30:00 18.9 C 96 % 18.25 C
1772 02-08-2020 03:35:00 18.9 C 96 % 18.25 C
1773 02-08-2020 03:40:00 18.8 C 96 % 18.15 C
1774 02-08-2020 03:45:00 18.8 C 96 % 18.15 C
1775 02-08-2020 03:50:00 18.8 C 96 % 18.15 C
Sensor: Nr:Datum:Temp:Feuchte:Taupunkt:
Aussen-T/F 1776 02-08-2020 03:55:00 18.8 C 96 % 18.15 C
1777 02-08-2020 04:00:00 18.8 C 96 % 18.15 C
1778 02-08-2020 04:05:00 18.8 C 97 % 18.31 C
1779 02-08-2020 04:10:00 18.8 C 97 % 18.31 C
1780 02-08-2020 04:15:00 18.8 C 97 % 18.31 C
1781 02-08-2020 04:20:00 18.7 C 97 % 18.21 C
1782 02-08-2020 04:25:00 18.7 C 96 % 18.05 C
1783 02-08-2020 04:30:00 18.6 C 96 % 17.95 C
1784 02-08-2020 04:35:00 18.4 C 96 % 17.75 C
1785 02-08-2020 04:40:00 18.3 C 96 % 17.65 C
1786 02-08-2020 04:45:00 18.2 C 96 % 17.55 C
1787 02-08-2020 04:50:00 18.2 C 96 % 17.55 C
1788 02-08-2020 04:55:00 18.1 C 96 % 17.45 C
1789 02-08-2020 05:00:00 18.1 C 96 % 17.45 C
1790 02-08-2020 05:05:00 17.9 C 96 % 17.25 C
1791 02-08-2020 05:10:00 17.8 C 96 % 17.15 C
1792 02-08-2020 05:15:00 17.7 C 96 % 17.05 C
1793 02-08-2020 05:20:00 17.6 C 96 % 16.95 C
1794 02-08-2020 05:25:00 17.6 C 96 % 16.95 C
1795 02-08-2020 05:30:00 17.5 C 96 % 16.85 C
1796 02-08-2020 05:35:00 17.5 C 96 % 16.85 C
1797 02-08-2020 05:40:00 17.4 C 96 % 16.76 C
1798 02-08-2020 05:45:00 17.3 C 96 % 16.66 C
1799 02-08-2020 05:50:00 17.2 C 96 % 16.56 C
1800 02-08-2020 05:55:00 17.1 C 96 % 16.46 C
Sensor: Nr:Datum:Temp:Feuchte:Taupunkt:
Aussen-T/F 1801 02-08-2020 06:00:00 17.1 C 96 % 16.46 C
1802 02-08-2020 06:05:00 17.1 C 96 % 16.46 C
1803 02-08-2020 06:10:00 17.1 C 96 % 16.46 C
1804 02-08-2020 06:15:00 17.1 C 96 % 16.46 C
1805 02-08-2020 06:20:00 17.1 C 96 % 16.46 C
1806 02-08-2020 06:25:00 17.1 C 96 % 16.46 C
1807 02-08-2020 06:30:00 17.1 C 96 % 16.46 C
1808 02-08-2020 06:35:00 17.1 C 96 % 16.46 C
1809 02-08-2020 06:40:00 17.1 C 96 % 16.46 C
1810 02-08-2020 06:45:00 17 C 96 % 16.36 C
1811 02-08-2020 06:50:00 16.9 C 95 % 16.09 C
1812 02-08-2020 06:55:00 17.1 C 94 % 16.13 C
1813 02-08-2020 07:00:00 17.2 C 94 % 16.23 C
1814 02-08-2020 07:05:00 17.3 C 93 % 16.16 C
1815 02-08-2020 07:10:00 17.3 C 94 % 16.33 C
1816 02-08-2020 07:15:00 17.4 C 94 % 16.42 C
1817 02-08-2020 07:20:00 17.4 C 94 % 16.42 C
1818 02-08-2020 07:25:00 17.5 C 94 % 16.52 C
1819 02-08-2020 07:30:00 17.6 C 94 % 16.62 C
1820 02-08-2020 07:35:00 17.6 C 94 % 16.62 C
1821 02-08-2020 07:40:00 17.6 C 94 % 16.62 C
1822 02-08-2020 07:45:00 17.7 C 94 % 16.72 C
1823 02-08-2020 07:50:00 17.7 C 95 % 16.89 C
1824 02-08-2020 07:55:00 17.8 C 95 % 16.99 C
1825 02-08-2020 08:00:00 17.8 C 95 % 16.99 C
Sensor: Nr:Datum:Temp:Feuchte:Taupunkt:
Aussen-T/F 1826 02-08-2020 08:05:00 17.8 C 95 % 16.99 C
1827 02-08-2020 08:10:00 17.9 C 95 % 17.09 C
1828 02-08-2020 08:15:00 17.9 C 95 % 17.09 C
1829 02-08-2020 08:20:00 18 C 94 % 17.02 C
1830 02-08-2020 08:25:00 18.2 C 95 % 17.39 C
1831 02-08-2020 08:30:00 18.3 C 95 % 17.48 C
1832 02-08-2020 08:35:00 18.4 C 95 % 17.58 C
1833 02-08-2020 08:40:00 18.5 C 95 % 17.68 C
1834 02-08-2020 08:45:00 18.4 C 93 % 17.25 C
1835 02-08-2020 08:50:00 18.4 C 91 % 16.9 C
1836 02-08-2020 08:55:00 18.5 C 90 % 16.83 C
1837 02-08-2020 09:00:00 18.7 C 91 % 17.2 C
1838 02-08-2020 09:05:00 18.7 C 87 % 16.49 C
1839 02-08-2020 09:10:00 18.8 C 86 % 16.41 C
1840 02-08-2020 09:15:00 19.1 C 86 % 16.7 C
1841 02-08-2020 09:20:00 19.3 C 86 % 16.9 C
1842 02-08-2020 09:25:00 19.4 C 83 % 16.44 C
1843 02-08-2020 09:30:00 19.6 C 83 % 16.63 C
1844 02-08-2020 09:35:00 19.7 C 82 % 16.54 C
1845 02-08-2020 09:40:00 19.8 C 82 % 16.64 C
1846 02-08-2020 09:45:00 19.9 C 82 % 16.74 C
1847 02-08-2020 09:50:00 20.2 C 80 % 16.64 C
1848 02-08-2020 09:55:00 20.3 C 80 % 16.74 C
1849 02-08-2020 10:00:00 20.4 C 78 % 16.44 C
1850 02-08-2020 10:05:00 20.6 C 75 % 16.01 C
Sensor: Nr:Datum:Temp:Feuchte:Taupunkt:
Aussen-T/F 1851 02-08-2020 10:10:00 20.7 C 74 % 15.9 C
1852 02-08-2020 10:15:00 20.7 C 76 % 16.32 C
1853 02-08-2020 10:20:00 20.8 C 74 % 16 C
1854 02-08-2020 10:25:00 21 C 75 % 16.4 C
1855 02-08-2020 10:30:00 21.2 C 74 % 16.38 C
1856 02-08-2020 10:35:00 21.3 C 72 % 16.05 C
1857 02-08-2020 10:40:00 21.4 C 72 % 16.14 C
1858 02-08-2020 10:45:00 21.5 C 72 % 16.24 C
1859 02-08-2020 10:50:00 21.6 C 71 % 16.12 C
1860 02-08-2020 10:55:00 21.6 C 72 % 16.34 C
1861 02-08-2020 11:00:00 21.7 C 72 % 16.43 C
1862 02-08-2020 11:05:00 21.8 C 72 % 16.53 C
1863 02-08-2020 11:10:00 21.9 C 72 % 16.62 C
1864 02-08-2020 11:15:00 22.2 C 70 % 16.47 C
1865 02-08-2020 11:20:00 22.2 C 69 % 16.24 C
1866 02-08-2020 11:25:00 22.3 C 69 % 16.34 C
1867 02-08-2020 11:30:00 22.4 C 69 % 16.43 C
1868 02-08-2020 11:35:00 22.3 C 68 % 16.11 C
1869 02-08-2020 11:40:00 22.3 C 69 % 16.34 C
1870 02-08-2020 11:45:00 22.3 C 68 % 16.11 C
1871 02-08-2020 11:50:00 22.3 C 68 % 16.11 C
1872 02-08-2020 11:55:00 22.3 C 67 % 15.88 C
1873 02-08-2020 12:00:00 22.4 C 67 % 15.97 C
1874 02-08-2020 12:05:00 22.4 C 65 % 15.5 C
1875 02-08-2020 12:10:00 22.5 C 66 % 15.83 C
Sensor: Nr:Datum:Temp:Feuchte:Taupunkt:
Aussen-T/F 1876 02-08-2020 12:15:00 22.6 C 65 % 15.69 C
1877 02-08-2020 12:20:00 22.6 C 65 % 15.69 C
1878 02-08-2020 12:25:00 22.7 C 64 % 15.54 C
1879 02-08-2020 12:30:00 22.7 C 59 % 14.28 C
1880 02-08-2020 12:35:00 22.7 C 59 % 14.28 C
1881 02-08-2020 12:40:00 22.7 C 59 % 14.28 C
1882 02-08-2020 12:45:00 22.7 C 60 % 14.54 C
1883 02-08-2020 12:50:00 22.8 C 63 % 15.39 C
1884 02-08-2020 12:55:00 22.8 C 62 % 15.14 C
1885 02-08-2020 13:00:00 22.9 C 62 % 15.23 C
1886 02-08-2020 13:05:00 23 C 63 % 15.58 C
1887 02-08-2020 13:10:00 23.2 C 61 % 15.26 C
1888 02-08-2020 13:15:00 23.2 C 62 % 15.52 C
1889 02-08-2020 13:20:00 23.3 C 62 % 15.61 C
1890 02-08-2020 13:25:00 23.4 C 60 % 15.19 C
1891 02-08-2020 13:30:00 23.5 C 61 % 15.55 C
1892 02-08-2020 13:35:00 23.6 C 61 % 15.64 C
1893 02-08-2020 13:40:00 23.6 C 61 % 15.64 C
1894 02-08-2020 13:45:00 23.7 C 60 % 15.48 C
1895 02-08-2020 13:50:00 23.7 C 60 % 15.48 C
1896 02-08-2020 13:55:00 23.7 C 57 % 14.68 C
1897 02-08-2020 14:00:00 23.6 C 58 % 14.86 C
1898 02-08-2020 14:05:00 23.5 C 57 % 14.49 C
1899 02-08-2020 14:10:00 23.6 C 58 % 14.86 C
1900 02-08-2020 14:15:00 23.6 C 58 % 14.86 C
Sensor: Nr:Datum:Temp:Feuchte:Taupunkt:
Aussen-T/F 1901 02-08-2020 14:20:00 23.7 C 57 % 14.68 C
1902 02-08-2020 14:25:00 23.8 C 56 % 14.5 C
1903 02-08-2020 14:30:00 23.8 C 55 % 14.22 C
1904 02-08-2020 14:35:00 23.8 C 56 % 14.5 C
1905 02-08-2020 14:40:00 23.8 C 56 % 14.5 C
1906 02-08-2020 14:45:00 23.8 C 56 % 14.5 C
1907 02-08-2020 14:50:00 23.8 C 55 % 14.22 C
1908 02-08-2020 14:55:00 23.8 C 54 % 13.94 C
1909 02-08-2020 15:00:00 24 C 56 % 14.68 C
1910 02-08-2020 15:05:00 24.3 C 56 % 14.96 C
1911 02-08-2020 15:10:00 24.5 C 53 % 14.3 C
1912 02-08-2020 15:15:00 24.6 C 53 % 14.39 C
1913 02-08-2020 15:20:00 24.7 C 52 % 14.19 C
1914 02-08-2020 15:25:00 24.6 C 52 % 14.09 C
1915 02-08-2020 15:30:00 24.5 C 52 % 14 C
1916 02-08-2020 15:35:00 24.7 C 52 % 14.19 C
1917 02-08-2020 15:40:00 24.9 C 49 % 13.46 C
1918 02-08-2020 15:45:00 24.8 C 49 % 13.36 C
1919 02-08-2020 15:50:00 24.7 C 49 % 13.27 C
1920 02-08-2020 15:55:00 25.1 C 49 % 13.64 C
1921 02-08-2020 16:00:00 25.3 C 48 % 13.5 C
1922 02-08-2020 16:05:00 25.2 C 48 % 13.41 C
1923 02-08-2020 16:10:00 25.2 C 48 % 13.41 C
1924 02-08-2020 16:15:00 25.3 C 47 % 13.18 C
1925 02-08-2020 16:20:00 25.7 C 46 % 13.22 C
Sensor: Nr:Datum:Temp:Feuchte:Taupunkt:
Aussen-T/F 1926 02-08-2020 16:25:00 25.8 C 46 % 13.31 C
1927 02-08-2020 16:30:00 25.7 C 48 % 13.87 C
1928 02-08-2020 16:35:00 26.1 C 46 % 13.58 C
1929 02-08-2020 16:40:00 26.3 C 48 % 14.42 C
1930 02-08-2020 16:45:00 26.1 C 48 % 14.23 C
1931 02-08-2020 16:50:00 25.8 C 49 % 14.28 C
1932 02-08-2020 16:55:00 25.9 C 50 % 14.68 C
1933 02-08-2020 17:00:00 26 C 49 % 14.46 C
1934 02-08-2020 17:05:00 26.1 C 50 % 14.87 C
1935 02-08-2020 17:10:00 26.3 C 49 % 14.74 C
1936 02-08-2020 17:15:00 26.4 C 47 % 14.18 C
1937 02-08-2020 17:20:00 26.4 C 49 % 14.83 C
1938 02-08-2020 17:25:00 26.3 C 49 % 14.74 C
1939 02-08-2020 17:30:00 25.9 C 50 % 14.68 C
1940 02-08-2020 17:35:00 25.8 C 51 % 14.9 C
1941 02-08-2020 17:40:00 26 C 50 % 14.77 C
1942 02-08-2020 17:45:00 26.2 C 49 % 14.64 C
1943 02-08-2020 17:50:00 26.1 C 49 % 14.55 C
1944 02-08-2020 17:55:00 26 C 48 % 14.14 C
1945 02-08-2020 18:00:00 26 C 50 % 14.77 C
1946 02-08-2020 18:05:00 26.2 C 48 % 14.32 C
1947 02-08-2020 18:10:00 26.5 C 47 % 14.27 C
1948 02-08-2020 18:15:00 26.7 C 46 % 14.12 C
1949 02-08-2020 18:20:00 26.7 C 45 % 13.78 C
1950 02-08-2020 18:25:00 26.4 C 45 % 13.51 C
Sensor: Nr:Datum:Temp:Feuchte:Taupunkt:
Aussen-T/F 1951 02-08-2020 18:30:00 26 C 45 % 13.15 C
1952 02-08-2020 18:35:00 25.5 C 47 % 13.36 C
1953 02-08-2020 18:40:00 25.4 C 46 % 12.94 C
1954 02-08-2020 18:45:00 25.6 C 45 % 12.79 C
1955 02-08-2020 18:50:00 25.8 C 44 % 12.63 C
1956 02-08-2020 18:55:00 25.9 C 44 % 12.72 C
1957 02-08-2020 19:00:00 26.1 C 44 % 12.9 C
1958 02-08-2020 19:05:00 25.9 C 44 % 12.72 C
1959 02-08-2020 19:10:00 25.9 C 46 % 13.4 C
1960 02-08-2020 19:15:00 25.7 C 45 % 12.88 C
1961 02-08-2020 19:20:00 25.6 C 44 % 12.45 C
1962 02-08-2020 19:25:00 25.5 C 44 % 12.36 C
1963 02-08-2020 19:30:00 25.6 C 43 % 12.1 C
1964 02-08-2020 19:35:00 25.5 C 44 % 12.36 C
1965 02-08-2020 19:40:00 25.4 C 45 % 12.61 C
1966 02-08-2020 19:45:00 25.2 C 45 % 12.43 C
1967 02-08-2020 19:50:00 25.1 C 46 % 12.67 C
1968 02-08-2020 19:55:00 24.9 C 46 % 12.49 C
1969 02-08-2020 20:00:00 24.8 C 47 % 12.73 C
1970 02-08-2020 20:05:00 24.6 C 47 % 12.54 C
1971 02-08-2020 20:10:00 24.4 C 48 % 12.68 C
1972 02-08-2020 20:15:00 24.2 C 49 % 12.81 C
1973 02-08-2020 20:20:00 24 C 52 % 13.54 C
1974 02-08-2020 20:25:00 23.8 C 54 % 13.94 C
1975 02-08-2020 20:30:00 23.6 C 55 % 14.03 C
Sensor: Nr:Datum:Temp:Feuchte:Taupunkt:
Aussen-T/F 1976 02-08-2020 20:35:00 23.3 C 58 % 14.58 C
1977 02-08-2020 20:40:00 23 C 59 % 14.56 C
1978 02-08-2020 20:45:00 22.8 C 59 % 14.37 C
1979 02-08-2020 20:50:00 22.6 C 60 % 14.44 C
1980 02-08-2020 20:55:00 22.4 C 60 % 14.26 C
1981 02-08-2020 21:00:00 22.2 C 59 % 13.81 C
1982 02-08-2020 21:05:00 22 C 61 % 14.14 C
1983 02-08-2020 21:10:00 21.8 C 61 % 13.95 C
1984 02-08-2020 21:15:00 21.7 C 61 % 13.85 C
1985 02-08-2020 21:20:00 21.6 C 61 % 13.76 C
1986 02-08-2020 21:25:00 21.4 C 62 % 13.82 C
1987 02-08-2020 21:30:00 21.3 C 64 % 14.22 C
1988 02-08-2020 21:35:00 21.1 C 66 % 14.5 C
1989 02-08-2020 21:40:00 20.7 C 66 % 14.12 C
1990 02-08-2020 21:45:00 20.3 C 67 % 13.97 C
1991 02-08-2020 21:50:00 20 C 69 % 14.14 C
1992 02-08-2020 21:55:00 19.8 C 70 % 14.17 C
1993 02-08-2020 22:00:00 19.6 C 72 % 14.42 C
1994 02-08-2020 22:05:00 19.4 C 71 % 14.01 C
1995 02-08-2020 22:10:00 19.3 C 73 % 14.34 C
1996 02-08-2020 22:15:00 19.2 C 74 % 14.46 C
1997 02-08-2020 22:20:00 19.1 C 74 % 14.36 C
1998 02-08-2020 22:25:00 19 C 73 % 14.05 C
1999 02-08-2020 22:30:00 19.1 C 74 % 14.36 C
2000 02-08-2020 22:35:00 19.1 C 73 % 14.15 C
Sensor: Nr:Datum:Temp:Feuchte:Taupunkt:
Aussen-T/F 2001 02-08-2020 22:40:00 19.2 C 73 % 14.25 C
2002 02-08-2020 22:45:00 19.3 C 74 % 14.55 C
2003 02-08-2020 22:50:00 19.3 C 74 % 14.55 C
2004 02-08-2020 22:55:00 19.3 C 74 % 14.55 C
2005 02-08-2020 23:00:00 19.2 C 74 % 14.46 C
2006 02-08-2020 23:05:00 19.2 C 74 % 14.46 C
2007 02-08-2020 23:10:00 19.1 C 74 % 14.36 C
2008 02-08-2020 23:15:00 19.2 C 74 % 14.46 C
2009 02-08-2020 23:20:00 19.2 C 75 % 14.66 C
2010 02-08-2020 23:25:00 19.2 C 74 % 14.46 C
2011 02-08-2020 23:30:00 19.2 C 75 % 14.66 C
2012 02-08-2020 23:35:00 19 C 75 % 14.47 C
2013 02-08-2020 23:40:00 18.8 C 76 % 14.48 C
2014 02-08-2020 23:45:00 18.7 C 77 % 14.59 C
2015 02-08-2020 23:50:00 18.6 C 77 % 14.49 C
2016 02-08-2020 23:55:00 18.4 C 77 % 14.3 C

Legende:
   Min
   Max


Maximal/Minimal-Werte vom 27.07.2020 - 02.08.2020

Sensor Min Max Avg
Temp
(Aussen-T/F)
11.1 °C
30-07-2020  06:25:00
37.9 °C
31-07-2020  17:55:00
21.63 °C
Feuchte
(Aussen-T/F)
21 %
31-07-2020  17:15:00
97 %
02-08-2020  01:00:00
63.48 %
Taupunkt
(Aussen-T/F)
8.99 C
29-07-2020  14:45:00
22.96 C
01-08-2020  18:15:00
13.31 C

Die Daten stammen von einer Davis Vantage Pro 2 Wetter-Station und werden unter Linux mit der Software wview2wettercgi und aufbereitet. Alle Angaben erfolgen ohne Gewähr für ihre Vollständigkeit oder Richtigkeit.
Kontakt: Rainer Krienke krienke@uni-koblenz.de . Meine Webseiten an der Uni Koblenz oder privat.
Version: $Revision: 0.78 $